Observation data for Hobbs on 07/19/2019      Previous  Date  Next       Current Mesonet Observations  Soil Data  Daily Summary Page  Observations in Plain Language
KHO1 190500Z 17016KT 29/14 A2999 RMK A01 T02900138  RH  039%=      5-min Rain = 0
KHO1 190501Z 17015KT 29/14 A2999 RMK A01 T02900138  RH  039%=      5-min Rain = 0
KHO1 190502Z 17015G20KT 29/14 A2999 RMK A01 T02900138  RH  040%=      5-min Rain = 0
KHO1 190503Z 17014KT 29/14 A2999 RMK A01 T02890139  RH  040%=      5-min Rain = 0
KHO1 190504Z 17014G19KT 29/14 A2999 RMK A01 T02890139  RH  040%=      5-min Rain = 0
KHO1 190505Z 16017KT 29/14 A2999 RMK A01 T02890139  RH  040%=      5-min Rain = 0
KHO1 190506Z 17014KT 29/14 A2999 RMK A01 T02890139  RH  040%=      5-min Rain = 0
KHO1 190507Z 17014KT 29/14 A2999 RMK A01 T02880139  RH  040%=      5-min Rain = 0
KHO1 190508Z 17016G21KT 29/14 A2999 RMK A01 T02880139  RH  040%=      5-min Rain = 0
KHO1 190509Z 16016KT 29/14 A2999 RMK A01 T02880139  RH  040%=      5-min Rain = 0
KHO1 190510Z 17014KT 29/14 A2999 RMK A01 T02880139  RH  040%=      5-min Rain = 0
KHO1 190511Z 16014KT 29/14 A2999 RMK A01 T02870139  RH  040%=      5-min Rain = 0
KHO1 190512Z 17014KT 29/14 A2999 RMK A01 T02870139  RH  040%=      5-min Rain = 0
KHO1 190513Z 16015KT 29/14 A2999 RMK A01 T02860139  RH  041%=      5-min Rain = 0
KHO1 190514Z 17015KT 29/14 A2999 RMK A01 T02860140  RH  041%=      5-min Rain = 0
KHO1 190515Z 17014KT 29/14 A2999 RMK A01 T02860140  RH  041%=      5-min Rain = 0
KHO1 190516Z 17016KT 29/14 A2999 RMK A01 T02860140  RH  041%=      5-min Rain = 0
KHO1 190517Z 17017KT 29/14 A2999 RMK A01 T02860140  RH  041%=      5-min Rain = 0
KHO1 190518Z 17016KT 29/14 A2999 RMK A01 T02860140  RH  041%=      5-min Rain = 0
KHO1 190519Z 17016KT 29/14 A2999 RMK A01 T02860140  RH  041%=      5-min Rain = 0
KHO1 190520Z 17017KT 29/14 A2999 RMK A01 T02860140  RH  041%=      5-min Rain = 0
KHO1 190521Z 17015G20KT 29/14 A2999 RMK A01 T02860140  RH  041%=      5-min Rain = 0
KHO1 190522Z 17018G23KT 29/14 A2999 RMK A01 T02850140  RH  041%=      5-min Rain = 0
KHO1 190523Z 17018G23KT 29/14 A2999 RMK A01 T02860140  RH  041%=      5-min Rain = 0
KHO1 190524Z 17017G23KT 29/14 A2999 RMK A01 T02850140  RH  041%=      5-min Rain = 0
KHO1 190525Z 17020KT 29/14 A2999 RMK A01 T02860140  RH  041%=      5-min Rain = 0
KHO1 190526Z 17017G22KT 29/14 A2999 RMK A01 T02860140  RH  041%=      5-min Rain = 0
KHO1 190527Z 17018KT 29/14 A2999 RMK A01 T02850140  RH  041%=      5-min Rain = 0
KHO1 190528Z 17016KT 29/14 A2999 RMK A01 T02860140  RH  041%=      5-min Rain = 0
KHO1 190529Z 17019G24KT 29/14 A2999 RMK A01 T02850139  RH  041%=      5-min Rain = 0
KHO1 190530Z 17018G23KT 29/14 A2999 RMK A01 T02860139  RH  041%=      5-min Rain = 0
KHO1 190531Z 17019KT 29/14 A2999 RMK A01 T02850139  RH  041%=      5-min Rain = 0
KHO1 190532Z 18019KT 29/14 A2999 RMK A01 T02850139  RH  041%=      5-min Rain = 0
KHO1 190533Z 17018KT 29/14 A2999 RMK A01 T02850139  RH  041%=      5-min Rain = 0
KHO1 190534Z 17018KT 29/14 A2999 RMK A01 T02850139  RH  041%=      5-min Rain = 0
KHO1 190535Z 17018KT 29/14 A2999 RMK A01 T02850139  RH  041%=      5-min Rain = 0
KHO1 190536Z 17018KT 29/14 A2999 RMK A01 T02850139  RH  041%=      5-min Rain = 0
KHO1 190537Z 17015G21KT 28/14 A2999 RMK A01 T02840139  RH  041%=      5-min Rain = 0
KHO1 190538Z 17014G19KT 28/14 A2999 RMK A01 T02830139  RH  041%=      5-min Rain = 0
KHO1 190539Z 17015KT 28/14 A2999 RMK A01 T02830139  RH  041%=      5-min Rain = 0
KHO1 190540Z 17017KT 28/14 A2999 RMK A01 T02830140  RH  041%=      5-min Rain = 0
KHO1 190541Z 17015KT 28/14 A2999 RMK A01 T02830140  RH  041%=      5-min Rain = 0
KHO1 190542Z 17017KT 28/14 A2999 RMK A01 T02820140  RH  042%=      5-min Rain = 0
KHO1 190543Z 17017G22KT 28/14 A2999 RMK A01 T02820140  RH  042%=      5-min Rain = 0
KHO1 190544Z 16019KT 28/14 A2999 RMK A01 T02820140  RH  042%=      5-min Rain = 0
KHO1 190545Z 17017KT 28/14 A2999 RMK A01 T02820140  RH  042%=      5-min Rain = 0
KHO1 190546Z 17017G22KT 28/14 A30 RMK A01 T02820139  RH  042%=      5-min Rain = 0
KHO1 190547Z 17019KT 28/14 A30 RMK A01 T02820139  RH  042%=      5-min Rain = 0
KHO1 190548Z 17019KT 28/14 A30 RMK A01 T02820138  RH  041%=      5-min Rain = 0
KHO1 190549Z 17016KT 28/14 A30 RMK A01 T02810138  RH  041%=      5-min Rain = 0
KHO1 190550Z 17019G26KT 28/14 A30 RMK A01 T02810138  RH  041%=      5-min Rain = 0
KHO1 190551Z 17018KT 28/14 A30 RMK A01 T02810138  RH  041%=      5-min Rain = 0
KHO1 190552Z 17020KT 28/14 A30 RMK A01 T02810137  RH  041%=      5-min Rain = 0
KHO1 190553Z 17017KT 28/14 A30 RMK A01 T02810137  RH  041%=      5-min Rain = 0
KHO1 190554Z 17018KT 28/14 A30 RMK A01 T02810137  RH  041%=      5-min Rain = 0
KHO1 190555Z 17018KT 28/14 A30 RMK A01 T02810136  RH  041%=      5-min Rain = 0
KHO1 190556Z 17015KT 28/14 A30 RMK A01 T02800136  RH  041%=      5-min Rain = 0
KHO1 190557Z 17015G20KT 28/14 A30 RMK A01 T02800136  RH  041%=      5-min Rain = 0
KHO1 190558Z 17014KT 28/14 A30 RMK A01 T02790136  RH  041%=      5-min Rain = 0
KHO1 190559Z 17013KT 28/14 A30 RMK A01 T02780136  RH  042%=      5-min Rain = 0
KHO1 190600Z 17017KT 28/14 A30 RMK A01 T02780136  RH  042%=      5-min Rain = 0
KHO1 190601Z 17016KT 28/14 A30 RMK A01 T02780136  RH  041%=      5-min Rain = 0
KHO1 190602Z 17018KT 28/14 A30 RMK A01 T02780135  RH  041%=      5-min Rain = 0
KHO1 190603Z 17015G20KT 28/14 A30 RMK A01 T02780135  RH  041%=      5-min Rain = 0
KHO1 190604Z 17015KT 28/14 A30 RMK A01 T02780135  RH  041%=      5-min Rain = 0
KHO1 190605Z 17015G20KT 28/14 A30 RMK A01 T02780135  RH  041%=      5-min Rain = 0
KHO1 190606Z 17017KT 28/14 A30 RMK A01 T02780135  RH  041%=      5-min Rain = 0
KHO1 190607Z 17015KT 28/13 A30 RMK A01 T02770134  RH  041%=      5-min Rain = 0
KHO1 190608Z 17019KT 28/13 A2999 RMK A01 T02770134  RH  041%=      5-min Rain = 0
KHO1 190609Z 17017G22KT 28/13 A30 RMK A01 T02780134  RH  041%=      5-min Rain = 0
KHO1 190610Z 17017G22KT 28/13 A30 RMK A01 T02770134  RH  041%=      5-min Rain = 0
KHO1 190611Z 17017KT 28/13 A2999 RMK A01 T02770133  RH  041%=      5-min Rain = 0
KHO1 190612Z 17019KT 28/13 A30 RMK A01 T02770133  RH  041%=      5-min Rain = 0
KHO1 190613Z 17017G22KT 28/13 A30 RMK A01 T02770133  RH  041%=      5-min Rain = 0
KHO1 190614Z 17015KT 28/13 A30 RMK A01 T02770133  RH  041%=      5-min Rain = 0
KHO1 190615Z 17017KT 28/13 A2999 RMK A01 T02770132  RH  041%=      5-min Rain = 0
KHO1 190616Z 17016G22KT 28/13 A30 RMK A01 T02770132  RH  041%=      5-min Rain = 0
KHO1 190617Z 17014KT 28/13 A30 RMK A01 T02760132  RH  041%=      5-min Rain = 0
KHO1 190618Z 17018G24KT 28/13 A2999 RMK A01 T02760132  RH  041%=      5-min Rain = 0
KHO1 190619Z 17017KT 28/13 A2999 RMK A01 T02760131  RH  041%=      5-min Rain = 0
KHO1 190620Z 17017KT 28/13 A2999 RMK A01 T02760131  RH  041%=      5-min Rain = 0
KHO1 190621Z 17017KT 28/13 A2999 RMK A01 T02760131  RH  041%=      5-min Rain = 0
KHO1 190622Z 17016KT 28/13 A2999 RMK A01 T02760131  RH  041%=      5-min Rain = 0
KHO1 190623Z 17017KT 28/13 A30 RMK A01 T02760131  RH  041%=      5-min Rain = 0
KHO1 190624Z 17017G22KT 28/13 A2999 RMK A01 T02750131  RH  041%=      5-min Rain = 0
KHO1 190625Z 17017KT 28/13 A2999 RMK A01 T02750131  RH  041%=      5-min Rain = 0
KHO1 190626Z 17016KT 28/13 A2999 RMK A01 T02750131  RH  041%=      5-min Rain = 0
KHO1 190627Z 17015G20KT 28/13 A2999 RMK A01 T02750130  RH  041%=      5-min Rain = 0
KHO1 190628Z 17015KT 27/13 A30 RMK A01 T02740130  RH  041%=      5-min Rain = 0
KHO1 190629Z 17016KT 27/13 A30 RMK A01 T02740130  RH  041%=      5-min Rain = 0
KHO1 190630Z 17015KT 27/13 A2999 RMK A01 T02740130  RH  041%=      5-min Rain = 0
KHO1 190631Z 18016KT 27/13 A30 RMK A01 T02740130  RH  041%=      5-min Rain = 0
KHO1 190632Z 17016KT 27/13 A30 RMK A01 T02740130  RH  041%=      5-min Rain = 0
KHO1 190633Z 17014KT 27/13 A30 RMK A01 T02740130  RH  041%=      5-min Rain = 0
KHO1 190634Z 17016KT 27/13 A30 RMK A01 T02730130  RH  041%=      5-min Rain = 0
KHO1 190635Z 18017KT 27/13 A30 RMK A01 T02730129  RH  041%=      5-min Rain = 0
KHO1 190636Z 17018KT 27/13 A2999 RMK A01 T02730129  RH  041%=      5-min Rain = 0
KHO1 190637Z 17016KT 27/13 A30 RMK A01 T02730129  RH  041%=      5-min Rain = 0
KHO1 190638Z 18016KT 27/13 A2999 RMK A01 T02730129  RH  041%=      5-min Rain = 0
KHO1 190639Z 17013KT 27/13 A2999 RMK A01 T02730129  RH  041%=      5-min Rain = 0
KHO1 190640Z 17015KT 27/13 A2999 RMK A01 T02720129  RH  041%=      5-min Rain = 0
KHO1 190641Z 17013KT 27/13 A2999 RMK A01 T02720129  RH  041%=      5-min Rain = 0
KHO1 190642Z 17013KT 27/13 A2999 RMK A01 T02720129  RH  041%=      5-min Rain = 0
KHO1 190643Z 17015KT 27/13 A2999 RMK A01 T02710129  RH  041%=      5-min Rain = 0
KHO1 190644Z 17012G17KT 27/13 A2999 RMK A01 T02710129  RH  041%=      5-min Rain = 0
KHO1 190645Z 18016KT 27/13 A2999 RMK A01 T02710129  RH  041%=      5-min Rain = 0
KHO1 190646Z 17015G21KT 27/13 A2999 RMK A01 T02710129  RH  041%=      5-min Rain = 0
KHO1 190647Z 17014G19KT 27/13 A2999 RMK A01 T02710128  RH  041%=      5-min Rain = 0
KHO1 190648Z 17016KT 27/13 A2999 RMK A01 T02710128  RH  041%=      5-min Rain = 0
KHO1 190649Z 17016KT 27/13 A2999 RMK A01 T02710128  RH  041%=      5-min Rain = 0
KHO1 190650Z 17017KT 27/13 A2999 RMK A01 T02710128  RH  041%=      5-min Rain = 0
KHO1 190651Z 17014KT 27/13 A2999 RMK A01 T02710128  RH  041%=      5-min Rain = 0
KHO1 190652Z 17013KT 27/13 A2999 RMK A01 T02710128  RH  041%=      5-min Rain = 0
KHO1 190653Z 17014KT 27/13 A2999 RMK A01 T02700128  RH  041%=      5-min Rain = 0
KHO1 190654Z 17012KT 27/13 A2999 RMK A01 T02700128  RH  041%=      5-min Rain = 0
KHO1 190655Z 18015G21KT 27/13 A2999 RMK A01 T02690128  RH  041%=      5-min Rain = 0
KHO1 190656Z 18014KT 27/13 A2999 RMK A01 T02700128  RH  041%=      5-min Rain = 0
KHO1 190657Z 17015KT 27/13 A2999 RMK A01 T02690128  RH  041%=      5-min Rain = 0
KHO1 190658Z 17014KT 27/13 A2999 RMK A01 T02690128  RH  041%=      5-min Rain = 0
KHO1 190659Z 17017G22KT 27/13 A2999 RMK A01 T02700128  RH  041%=      5-min Rain = 0
KHO1 190700Z 17015G20KT 27/13 A2999 RMK A01 T02700128  RH  041%=      5-min Rain = 0
KHO1 190701Z 17017KT 27/13 A2999 RMK A01 T02700127  RH  041%=      5-min Rain = 0
KHO1 190702Z 17014KT 27/13 A2999 RMK A01 T02700127  RH  041%=      5-min Rain = 0
KHO1 190703Z 17013KT 27/13 A2999 RMK A01 T02690127  RH  041%=      5-min Rain = 0
KHO1 190704Z 17012KT 27/13 A2999 RMK A01 T02690127  RH  042%=      5-min Rain = 0
KHO1 190705Z 17014KT 27/13 A30 RMK A01 T02680127  RH  042%=      5-min Rain = 0
KHO1 190706Z 17015KT 27/13 A2999 RMK A01 T02680127  RH  042%=      5-min Rain = 0
KHO1 190707Z 17014G19KT 27/13 A2999 RMK A01 T02680127  RH  042%=      5-min Rain = 0
KHO1 190708Z 17013KT 27/13 A30 RMK A01 T02680127  RH  042%=      5-min Rain = 0
KHO1 190709Z 17014KT 27/13 A2999 RMK A01 T02680127  RH  042%=      5-min Rain = 0
KHO1 190710Z 17014KT 27/13 A2999 RMK A01 T02670127  RH  042%=      5-min Rain = 0
KHO1 190711Z 18014G19KT 27/13 A2999 RMK A01 T02670127  RH  042%=      5-min Rain = 0
KHO1 190712Z 18016KT 27/13 A2999 RMK A01 T02670127  RH  042%=      5-min Rain = 0
KHO1 190713Z 18017KT 27/13 A2999 RMK A01 T02680127  RH  042%=      5-min Rain = 0
KHO1 190714Z 18017KT 27/13 A2999 RMK A01 T02680127  RH  042%=      5-min Rain = 0
KHO1 190715Z 17015KT 27/13 A2999 RMK A01 T02680127  RH  042%=      5-min Rain = 0
KHO1 190716Z 17012KT 27/13 A2999 RMK A01 T02680127  RH  042%=      5-min Rain = 0
KHO1 190717Z 17014KT 27/13 A2999 RMK A01 T02670127  RH  042%=      5-min Rain = 0
KHO1 190718Z 17014KT 27/13 A2999 RMK A01 T02670127  RH  042%=      5-min Rain = 0
KHO1 190719Z 17013KT 27/13 A2999 RMK A01 T02670127  RH  042%=      5-min Rain = 0
KHO1 190720Z 18014KT 27/13 A2999 RMK A01 T02660127  RH  042%=      5-min Rain = 0
KHO1 190721Z 18014KT 27/13 A2999 RMK A01 T02660127  RH  042%=      5-min Rain = 0
KHO1 190722Z 17013KT 27/13 A2999 RMK A01 T02660127  RH  042%=      5-min Rain = 0
KHO1 190723Z 17013KT 27/13 A2999 RMK A01 T02660127  RH  042%=      5-min Rain = 0
KHO1 190724Z 17012G18KT 27/13 A2999 RMK A01 T02660127  RH  042%=      5-min Rain = 0
KHO1 190725Z 17015KT 27/13 A2999 RMK A01 T02660127  RH  042%=      5-min Rain = 0
KHO1 190726Z 18016KT 27/13 A2999 RMK A01 T02660127  RH  042%=      5-min Rain = 0
KHO1 190727Z 17014KT 27/13 A2999 RMK A01 T02660127  RH  042%=      5-min Rain = 0
KHO1 190728Z 17013KT 27/13 A2999 RMK A01 T02660127  RH  042%=      5-min Rain = 0
KHO1 190729Z 17014KT 27/13 A2999 RMK A01 T02650126  RH  042%=      5-min Rain = 0
KHO1 190730Z 17016KT 27/13 A2999 RMK A01 T02650127  RH  042%=      5-min Rain = 0
KHO1 190731Z 18015KT 27/13 A2999 RMK A01 T02660126  RH  042%=      5-min Rain = 0
KHO1 190732Z 17014KT 27/13 A2999 RMK A01 T02660126  RH  042%=      5-min Rain = 0
KHO1 190733Z 18014KT 27/13 A2999 RMK A01 T02650126  RH  042%=      5-min Rain = 0
KHO1 190734Z 17015G21KT 27/13 A2999 RMK A01 T02650126  RH  042%=      5-min Rain = 0
KHO1 190735Z 17013KT 27/13 A2999 RMK A01 T02650126  RH  042%=      5-min Rain = 0
KHO1 190736Z 17015G20KT 27/13 A2999 RMK A01 T02650126  RH  042%=      5-min Rain = 0
KHO1 190737Z 17015KT 27/13 A2999 RMK A01 T02650126  RH  042%=      5-min Rain = 0
KHO1 190738Z 17013KT 26/13 A2999 RMK A01 T02640126  RH  042%=      5-min Rain = 0
KHO1 190739Z 17015KT 26/13 A2999 RMK A01 T02640126  RH  042%=      5-min Rain = 0
KHO1 190740Z 17015G20KT 26/13 A2999 RMK A01 T02640126  RH  042%=      5-min Rain = 0
KHO1 190741Z 17018KT 27/13 A2999 RMK A01 T02650126  RH  042%=      5-min Rain = 0
KHO1 190742Z 17015KT 27/13 A2999 RMK A01 T02650126  RH  042%=      5-min Rain = 0
KHO1 190743Z 17018KT 27/13 A2999 RMK A01 T02650126  RH  042%=      5-min Rain = 0
KHO1 190744Z 17015KT 27/13 A2999 RMK A01 T02650126  RH  042%=      5-min Rain = 0
KHO1 190745Z 17013KT 26/13 A2999 RMK A01 T02640126  RH  042%=      5-min Rain = 0
KHO1 190746Z 17013KT 26/13 A2999 RMK A01 T02630126  RH  043%=      5-min Rain = 0
KHO1 190747Z 17012G17KT 26/13 A2999 RMK A01 T02630126  RH  043%=      5-min Rain = 0
KHO1 190748Z 17015KT 26/13 A2999 RMK A01 T02630127  RH  043%=      5-min Rain = 0
KHO1 190749Z 17014G19KT 26/13 A2999 RMK A01 T02630127  RH  043%=      5-min Rain = 0
KHO1 190750Z 17014KT 26/13 A2999 RMK A01 T02630126  RH  043%=      5-min Rain = 0
KHO1 190751Z 17016KT 26/13 A2999 RMK A01 T02630127  RH  043%=      5-min Rain = 0
KHO1 190752Z 17015KT 26/13 A2999 RMK A01 T02640126  RH  043%=      5-min Rain = 0
KHO1 190753Z 17012KT 26/13 A2999 RMK A01 T02630126  RH  043%=      5-min Rain = 0
KHO1 190754Z 17017G23KT 26/13 A2999 RMK A01 T02630126  RH  043%=      5-min Rain = 0
KHO1 190755Z 17015KT 26/13 A2999 RMK A01 T02630126  RH  043%=      5-min Rain = 0
KHO1 190756Z 17013KT 26/13 A2999 RMK A01 T02630126  RH  043%=      5-min Rain = 0
KHO1 190757Z 17013KT 26/13 A2999 RMK A01 T02630126  RH  043%=      5-min Rain = 0
KHO1 190758Z 17014KT 26/13 A2999 RMK A01 T02620126  RH  043%=      5-min Rain = 0
KHO1 190759Z 17013G18KT 26/13 A2999 RMK A01 T02620126  RH  043%=      5-min Rain = 0
KHO1 190800Z 17014KT 26/13 A2999 RMK A01 T02620126  RH  043%=      5-min Rain = 0
KHO1 190801Z 17014KT 26/13 A2999 RMK A01 T02620126  RH  043%=      5-min Rain = 0
KHO1 190802Z 17014KT 26/13 A2999 RMK A01 T02620126  RH  043%=      5-min Rain = 0
KHO1 190803Z 17013KT 26/13 A2999 RMK A01 T02620127  RH  043%=      5-min Rain = 0
KHO1 190804Z 17014KT 26/13 A2999 RMK A01 T02610127  RH  043%=      5-min Rain = 0
KHO1 190805Z 17012KT 26/13 A2999 RMK A01 T02610127  RH  043%=      5-min Rain = 0
KHO1 190806Z 18010KT 26/13 A2999 RMK A01 T02610127  RH  043%=      5-min Rain = 0
KHO1 190807Z 18012G17KT 26/13 A2999 RMK A01 T02600127  RH  044%=      5-min Rain = 0
KHO1 190808Z 17011KT 26/13 A2999 RMK A01 T02600127  RH  044%=      5-min Rain = 0
KHO1 190809Z 17012KT 26/13 A2999 RMK A01 T02600127  RH  044%=      5-min Rain = 0
KHO1 190810Z 17014KT 26/13 A2999 RMK A01 T02600127  RH  044%=      5-min Rain = 0
KHO1 190811Z 17015KT 26/13 A2999 RMK A01 T02610127  RH  043%=      5-min Rain = 0
KHO1 190812Z 17014KT 26/13 A2999 RMK A01 T02610127  RH  043%=      5-min Rain = 0
KHO1 190813Z 17013KT 26/13 A2999 RMK A01 T02600127  RH  043%=      5-min Rain = 0
KHO1 190814Z 17011KT 26/13 A2999 RMK A01 T02600127  RH  044%=      5-min Rain = 0
KHO1 190815Z 18013KT 26/13 A2999 RMK A01 T02600127  RH  044%=      5-min Rain = 0
KHO1 190816Z 17015KT 26/13 A2999 RMK A01 T02600127  RH  044%=      5-min Rain = 0
KHO1 190817Z 17013KT 26/13 A2999 RMK A01 T02600127  RH  044%=      5-min Rain = 0
KHO1 190818Z 17012G17KT 26/13 A2999 RMK A01 T02600127  RH  044%=      5-min Rain = 0
KHO1 190819Z 17013KT 26/13 A2999 RMK A01 T02600127  RH  044%=      5-min Rain = 0
KHO1 190820Z 18013KT 26/13 A2999 RMK A01 T02590127  RH  044%=      5-min Rain = 0
KHO1 190821Z 17013KT 26/13 A2999 RMK A01 T02590127  RH  044%=      5-min Rain = 0
KHO1 190822Z 17011KT 26/13 A2999 RMK A01 T02590127  RH  044%=      5-min Rain = 0
KHO1 190823Z 17014KT 26/13 A2999 RMK A01 T02590127  RH  044%=      5-min Rain = 0
KHO1 190824Z 17015KT 26/13 A2999 RMK A01 T02600127  RH  044%=      5-min Rain = 0
KHO1 190825Z 17013KT 26/13 A2999 RMK A01 T02600127  RH  044%=      5-min Rain = 0
KHO1 190826Z 18012KT 26/13 A2999 RMK A01 T02590127  RH  044%=      5-min Rain = 0
KHO1 190827Z 17011KT 26/13 A2999 RMK A01 T02590127  RH  044%=      5-min Rain = 0
KHO1 190828Z 17014KT 26/13 A2999 RMK A01 T02590127  RH  044%=      5-min Rain = 0
KHO1 190829Z 17015KT 26/13 A2999 RMK A01 T02590127  RH  044%=      5-min Rain = 0
KHO1 190830Z 17016KT 26/13 A2999 RMK A01 T02590127  RH  044%=      5-min Rain = 0
KHO1 190831Z 18013KT 26/13 A2999 RMK A01 T02600127  RH  044%=      5-min Rain = 0
KHO1 190832Z 17015KT 26/13 A2999 RMK A01 T02590127  RH  044%=      5-min Rain = 0
KHO1 190833Z 18013KT 26/13 A2999 RMK A01 T02590127  RH  044%=      5-min Rain = 0
KHO1 190834Z 17016KT 26/13 A2999 RMK A01 T02590127  RH  044%=      5-min Rain = 0
KHO1 190835Z 18014G20KT 26/13 A2999 RMK A01 T02590127  RH  044%=      5-min Rain = 0
KHO1 190836Z 18016KT 26/13 A2999 RMK A01 T02590127  RH  044%=      5-min Rain = 0
KHO1 190837Z 17014KT 26/13 A2999 RMK A01 T02590127  RH  044%=      5-min Rain = 0
KHO1 190838Z 18015KT 26/13 A2999 RMK A01 T02590127  RH  044%=      5-min Rain = 0
KHO1 190839Z 18014KT 26/13 A2999 RMK A01 T02580127  RH  044%=      5-min Rain = 0
KHO1 190840Z 17013KT 26/13 A2999 RMK A01 T02590127  RH  044%=      5-min Rain = 0
KHO1 190841Z 17012G17KT 26/13 A2999 RMK A01 T02580127  RH  044%=      5-min Rain = 0
KHO1 190842Z 17014KT 26/13 A2999 RMK A01 T02580127  RH  044%=      5-min Rain = 0
KHO1 190843Z 17016G21KT 26/13 A2999 RMK A01 T02580128  RH  044%=      5-min Rain = 0
KHO1 190844Z 18015KT 26/13 A2999 RMK A01 T02580128  RH  044%=      5-min Rain = 0
KHO1 190845Z 18015KT 26/13 A2999 RMK A01 T02580128  RH  044%=      5-min Rain = 0
KHO1 190846Z 18013KT 26/13 A2999 RMK A01 T02580128  RH  044%=      5-min Rain = 0
KHO1 190847Z 18016KT 26/13 A2999 RMK A01 T02580128  RH  044%=      5-min Rain = 0
KHO1 190848Z 17016KT 26/13 A2999 RMK A01 T02580128  RH  044%=      5-min Rain = 0
KHO1 190849Z 17013KT 26/13 A2999 RMK A01 T02580128  RH  044%=      5-min Rain = 0
KHO1 190850Z 18012KT 26/13 A2999 RMK A01 T02570128  RH  044%=      5-min Rain = 0
KHO1 190851Z 18014KT 26/13 A2999 RMK A01 T02570128  RH  045%=      5-min Rain = 0
KHO1 190852Z 18014KT 26/13 A2999 RMK A01 T02570128  RH  045%=      5-min Rain = 0
KHO1 190853Z 18017KT 26/13 A2999 RMK A01 T02570128  RH  045%=      5-min Rain = 0
KHO1 190854Z 17016KT 26/13 A2999 RMK A01 T02570128  RH  045%=      5-min Rain = 0
KHO1 190855Z 18014KT 26/13 A2999 RMK A01 T02570128  RH  045%=      5-min Rain = 0
KHO1 190856Z 18015KT 26/13 A2999 RMK A01 T02570128  RH  045%=      5-min Rain = 0
KHO1 190857Z 18015KT 26/13 A2999 RMK A01 T02570128  RH  045%=      5-min Rain = 0
KHO1 190858Z 18014KT 26/13 A2999 RMK A01 T02570128  RH  045%=      5-min Rain = 0
KHO1 190859Z 17012KT 26/13 A2999 RMK A01 T02560128  RH  045%=      5-min Rain = 0
KHO1 190900Z 18012KT 26/13 A2999 RMK A01 T02560128  RH  045%=      5-min Rain = 0
KHO1 190901Z 18014KT 26/13 A2999 RMK A01 T02560129  RH  045%=      5-min Rain = 0
KHO1 190902Z 17016KT 26/13 A2999 RMK A01 T02560129  RH  045%=      5-min Rain = 0
KHO1 190903Z 17016KT 26/13 A2999 RMK A01 T02570129  RH  045%=      5-min Rain = 0
KHO1 190904Z 18013G18KT 26/13 A2999 RMK A01 T02570129  RH  045%=      5-min Rain = 0
KHO1 190905Z 18013KT 26/13 A2999 RMK A01 T02560129  RH  045%=      5-min Rain = 0
KHO1 190906Z 17012G18KT 26/13 A2999 RMK A01 T02560128  RH  045%=      5-min Rain = 0
KHO1 190907Z 18014KT 26/13 A2999 RMK A01 T02560129  RH  045%=      5-min Rain = 0
KHO1 190908Z 18014G20KT 26/13 A2999 RMK A01 T02560129  RH  045%=      5-min Rain = 0
KHO1 190909Z 18014KT 26/13 A2999 RMK A01 T02560129  RH  045%=      5-min Rain = 0
KHO1 190910Z 18012KT 26/13 A2999 RMK A01 T02560129  RH  045%=      5-min Rain = 0
KHO1 190911Z 18015KT 26/13 A2999 RMK A01 T02550129  RH  045%=      5-min Rain = 0
KHO1 190912Z 18013G18KT 26/13 A2999 RMK A01 T02550129  RH  045%=      5-min Rain = 0
KHO1 190913Z 18013KT 26/13 A2999 RMK A01 T02550129  RH  045%=      5-min Rain = 0
KHO1 190914Z 18013G18KT 26/13 A2999 RMK A01 T02550129  RH  046%=      5-min Rain = 0
KHO1 190915Z 18014KT 26/13 A2999 RMK A01 T02550129  RH  046%=      5-min Rain = 0
KHO1 190916Z 18012KT 26/13 A2999 RMK A01 T02550129  RH  045%=      5-min Rain = 0
KHO1 190917Z 18011KT 26/13 A2999 RMK A01 T02550129  RH  046%=      5-min Rain = 0
KHO1 190918Z 18013KT 26/13 A2999 RMK A01 T02550129  RH  046%=      5-min Rain = 0
KHO1 190919Z 18011KT 25/13 A2999 RMK A01 T02540129  RH  046%=      5-min Rain = 0
KHO1 190920Z 18013KT 25/13 A2999 RMK A01 T02540129  RH  046%=      5-min Rain = 0
KHO1 190921Z 18014KT 26/13 A2999 RMK A01 T02550130  RH  046%=      5-min Rain = 0
KHO1 190922Z 18014KT 26/13 A2999 RMK A01 T02550130  RH  046%=      5-min Rain = 0
KHO1 190923Z 18014KT 26/13 A2999 RMK A01 T02550129  RH  046%=      5-min Rain = 0
KHO1 190924Z 18014KT 26/13 A2999 RMK A01 T02550130  RH  046%=      5-min Rain = 0
KHO1 190925Z 18012KT 26/13 A2999 RMK A01 T02550130  RH  046%=      5-min Rain = 0
KHO1 190926Z 18013G18KT 25/13 A2999 RMK A01 T02540129  RH  046%=      5-min Rain = 0
KHO1 190927Z 18013KT 25/13 A2999 RMK A01 T02540130  RH  046%=      5-min Rain = 0
KHO1 190928Z 18014KT 25/13 A2999 RMK A01 T02540130  RH  046%=      5-min Rain = 0
KHO1 190929Z 18012KT 25/13 A2999 RMK A01 T02540130  RH  046%=      5-min Rain = 0
KHO1 190930Z 18012KT 25/13 A2999 RMK A01 T02540130  RH  046%=      5-min Rain = 0
KHO1 190931Z 18013KT 25/13 A2999 RMK A01 T02540130  RH  046%=      5-min Rain = 0
KHO1 190932Z 18012KT 25/13 A2999 RMK A01 T02540130  RH  046%=      5-min Rain = 0
KHO1 190933Z 18012G18KT 25/13 A2999 RMK A01 T02530130  RH  046%=      5-min Rain = 0
KHO1 190934Z 18015KT 25/13 A2999 RMK A01 T02540130  RH  046%=      5-min Rain = 0
KHO1 190935Z 18015G21KT 25/13 A2999 RMK A01 T02540130  RH  046%=      5-min Rain = 0
KHO1 190936Z 18015KT 25/13 A2999 RMK A01 T02540130  RH  046%=      5-min Rain = 0
KHO1 190937Z 18015KT 25/13 A2998 RMK A01 T02540130  RH  046%=      5-min Rain = 0
KHO1 190938Z 18016KT 26/13 A2999 RMK A01 T02550130  RH  046%=      5-min Rain = 0
KHO1 190939Z 18014KT 26/13 A2999 RMK A01 T02550130  RH  046%=      5-min Rain = 0
KHO1 190940Z 18011KT 25/13 A2999 RMK A01 T02540130  RH  046%=      5-min Rain = 0
KHO1 190941Z 18012G17KT 25/13 A2999 RMK A01 T02530130  RH  046%=      5-min Rain = 0
KHO1 190942Z 17013KT 25/13 A2999 RMK A01 T02530131  RH  047%=      5-min Rain = 0
KHO1 190943Z 18012KT 25/13 A2999 RMK A01 T02530131  RH  047%=      5-min Rain = 0
KHO1 190944Z 18013KT 25/13 A2999 RMK A01 T02530131  RH  047%=      5-min Rain = 0
KHO1 190945Z 18013KT 25/13 A2999 RMK A01 T02530131  RH  047%=      5-min Rain = 0
KHO1 190946Z 18014KT 25/13 A2999 RMK A01 T02530131  RH  047%=      5-min Rain = 0
KHO1 190947Z 17013KT 25/13 A2999 RMK A01 T02530131  RH  047%=      5-min Rain = 0
KHO1 190948Z 18014KT 25/13 A2999 RMK A01 T02530131  RH  047%=      5-min Rain = 0
KHO1 190949Z 18015KT 25/13 A2999 RMK A01 T02530131  RH  047%=      5-min Rain = 0
KHO1 190950Z 18012KT 25/13 A2999 RMK A01 T02530131  RH  047%=      5-min Rain = 0
KHO1 190951Z 18013KT 25/13 A2999 RMK A01 T02520131  RH  047%=      5-min Rain = 0
KHO1 190952Z 18015KT 25/13 A2998 RMK A01 T02530131  RH  047%=      5-min Rain = 0
KHO1 190953Z 18012KT 25/13 A2999 RMK A01 T02530131  RH  047%=      5-min Rain = 0
KHO1 190954Z 18012KT 25/13 A2999 RMK A01 T02520131  RH  047%=      5-min Rain = 0
KHO1 190955Z 18015KT 25/13 A2998 RMK A01 T02520131  RH  047%=      5-min Rain = 0
KHO1 190956Z 18013KT 25/13 A2999 RMK A01 T02520131  RH  047%=      5-min Rain = 0
KHO1 190957Z 18011KT 25/13 A2999 RMK A01 T02520131  RH  047%=      5-min Rain = 0
KHO1 190958Z 18011KT 25/13 A2999 RMK A01 T02520131  RH  047%=      5-min Rain = 0
KHO1 190959Z 18013G18KT 25/13 A2999 RMK A01 T02510131  RH  047%=      5-min Rain = 0
KHO1 191000Z 18014KT 25/13 A2999 RMK A01 T02520132  RH  047%=      5-min Rain = 0
KHO1 191001Z 18012KT 25/13 A2999 RMK A01 T02520131  RH  047%=      5-min Rain = 0
KHO1 191002Z 18011KT 25/13 A2999 RMK A01 T02510131  RH  047%=      5-min Rain = 0
KHO1 191003Z 18015G20KT 25/13 A2998 RMK A01 T02510132  RH  047%=      5-min Rain = 0
KHO1 191004Z 18013KT 25/13 A2998 RMK A01 T02520132  RH  047%=      5-min Rain = 0
KHO1 191005Z 18014KT 25/13 A2998 RMK A01 T02520132  RH  047%=      5-min Rain = 0
KHO1 191006Z 18014KT 25/13 A2998 RMK A01 T02510132  RH  047%=      5-min Rain = 0
KHO1 191007Z 18013KT 25/13 A2998 RMK A01 T02520132  RH  047%=      5-min Rain = 0
KHO1 191008Z 18015KT 25/13 A2998 RMK A01 T02520132  RH  047%=      5-min Rain = 0
KHO1 191009Z 19015KT 25/13 A2998 RMK A01 T02520132  RH  047%=      5-min Rain = 0
KHO1 191010Z 18013KT 25/13 A2999 RMK A01 T02520132  RH  047%=      5-min Rain = 0
KHO1 191011Z 18013KT 25/13 A2999 RMK A01 T02510132  RH  047%=      5-min Rain = 0
KHO1 191012Z 18014KT 25/13 A2999 RMK A01 T02510132  RH  047%=      5-min Rain = 0
KHO1 191013Z 18013KT 25/13 A2999 RMK A01 T02510132  RH  047%=      5-min Rain = 0
KHO1 191014Z 19013KT 25/13 A2999 RMK A01 T02510132  RH  048%=      5-min Rain = 0
KHO1 191015Z 18013KT 25/13 A2999 RMK A01 T02510132  RH  048%=      5-min Rain = 0
KHO1 191016Z 18013KT 25/13 A2999 RMK A01 T02510132  RH  048%=      5-min Rain = 0
KHO1 191017Z 18013KT 25/13 A2999 RMK A01 T02510132  RH  048%=      5-min Rain = 0
KHO1 191018Z 18012KT 25/13 A2999 RMK A01 T02510132  RH  048%=      5-min Rain = 0
KHO1 191019Z 18013KT 25/13 A2999 RMK A01 T02510132  RH  048%=      5-min Rain = 0
KHO1 191020Z 18014KT 25/13 A2999 RMK A01 T02510132  RH  048%=      5-min Rain = 0
KHO1 191021Z 18014KT 25/13 A2999 RMK A01 T02510132  RH  048%=      5-min Rain = 0
KHO1 191022Z 18016KT 25/13 A2999 RMK A01 T02510132  RH  048%=      5-min Rain = 0
KHO1 191023Z 17015KT 25/13 A2998 RMK A01 T02510132  RH  048%=      5-min Rain = 0
KHO1 191024Z 18014G19KT 25/13 A2999 RMK A01 T02510132  RH  048%=      5-min Rain = 0
KHO1 191025Z 18010KT 25/13 A2999 RMK A01 T02500132  RH  048%=      5-min Rain = 0
KHO1 191026Z 18013KT 25/13 A2999 RMK A01 T02490132  RH  048%=      5-min Rain = 0
KHO1 191027Z 18011KT 25/13 A2999 RMK A01 T02500133  RH  048%=      5-min Rain = 0
KHO1 191028Z 18012KT 25/13 A2999 RMK A01 T02490133  RH  048%=      5-min Rain = 0
KHO1 191029Z 18013KT 25/13 A2999 RMK A01 T02490133  RH  048%=      5-min Rain = 0
KHO1 191030Z 17012KT 25/13 A2999 RMK A01 T02490133  RH  048%=      5-min Rain = 0
KHO1 191031Z 17012KT 25/13 A2999 RMK A01 T02490133  RH  048%=      5-min Rain = 0
KHO1 191032Z 18013KT 25/13 A2999 RMK A01 T02490133  RH  048%=      5-min Rain = 0
KHO1 191033Z 18016KT 25/13 A2999 RMK A01 T02490133  RH  048%=      5-min Rain = 0
KHO1 191034Z 18015KT 25/13 A2999 RMK A01 T02500133  RH  048%=      5-min Rain = 0
KHO1 191035Z 17013KT 25/13 A2999 RMK A01 T02490133  RH  048%=      5-min Rain = 0
KHO1 191036Z 18012KT 25/13 A2999 RMK A01 T02490133  RH  049%=      5-min Rain = 0
KHO1 191037Z 17013KT 25/13 A2999 RMK A01 T02480133  RH  049%=      5-min Rain = 0
KHO1 191038Z 18013KT 25/13 A2999 RMK A01 T02490133  RH  049%=      5-min Rain = 0
KHO1 191039Z 17011G17KT 25/13 A2998 RMK A01 T02480133  RH  049%=      5-min Rain = 0
KHO1 191040Z 17015KT 25/13 A2998 RMK A01 T02480133  RH  049%=      5-min Rain = 0
KHO1 191041Z 18013KT 25/13 A2998 RMK A01 T02480134  RH  049%=      5-min Rain = 0
KHO1 191042Z 18011KT 25/13 A2999 RMK A01 T02480133  RH  049%=      5-min Rain = 0
KHO1 191043Z 18012KT 25/13 A2999 RMK A01 T02480133  RH  049%=      5-min Rain = 0
KHO1 191044Z 18013KT 25/13 A2998 RMK A01 T02480134  RH  049%=      5-min Rain = 0
KHO1 191045Z 18013KT 25/13 A2998 RMK A01 T02480134  RH  049%=      5-min Rain = 0
KHO1 191046Z 18013KT 25/13 A2998 RMK A01 T02480134  RH  049%=      5-min Rain = 0
KHO1 191047Z 18012KT 25/13 A2998 RMK A01 T02480134  RH  049%=      5-min Rain = 0
KHO1 191048Z 18011G18KT 25/13 A2998 RMK A01 T02470134  RH  049%=      5-min Rain = 0
KHO1 191049Z 18014KT 25/13 A2998 RMK A01 T02470134  RH  049%=      5-min Rain = 0
KHO1 191050Z 17013KT 25/13 A2998 RMK A01 T02480134  RH  049%=      5-min Rain = 0
KHO1 191051Z 18014KT 25/13 A2998 RMK A01 T02470134  RH  049%=      5-min Rain = 0
KHO1 191052Z 18014KT 25/13 A2998 RMK A01 T02480134  RH  049%=      5-min Rain = 0
KHO1 191053Z 18011KT 25/13 A2999 RMK A01 T02470134  RH  049%=      5-min Rain = 0
KHO1 191054Z 17014KT 25/13 A2999 RMK A01 T02470134  RH  049%=      5-min Rain = 0
KHO1 191055Z 18013KT 25/13 A2998 RMK A01 T02470134  RH  049%=      5-min Rain = 0
KHO1 191056Z 18012KT 25/13 A2999 RMK A01 T02470134  RH  049%=      5-min Rain = 0
KHO1 191057Z 18013KT 25/13 A2998 RMK A01 T02470134  RH  049%=      5-min Rain = 0
KHO1 191058Z 17012KT 25/13 A2999 RMK A01 T02470134  RH  049%=      5-min Rain = 0
KHO1 191059Z 17012KT 25/13 A2999 RMK A01 T02470134  RH  049%=      5-min Rain = 0
KHO1 191100Z 17011KT 25/13 A2998 RMK A01 T02460134  RH  050%=      5-min Rain = 0
KHO1 191101Z 17012KT 25/13 A2999 RMK A01 T02460134  RH  050%=      5-min Rain = 0
KHO1 191102Z 18014KT 25/13 A2999 RMK A01 T02460134  RH  050%=      5-min Rain = 0
KHO1 191103Z 17012KT 25/13 A2999 RMK A01 T02460134  RH  050%=      5-min Rain = 0
KHO1 191104Z 17012KT 25/14 A2999 RMK A01 T02460135  RH  050%=      5-min Rain = 0
KHO1 191105Z 18012KT 25/14 A2999 RMK A01 T02460135  RH  050%=      5-min Rain = 0
KHO1 191106Z 18011KT 25/14 A2999 RMK A01 T02450135  RH  050%=      5-min Rain = 0
KHO1 191107Z 18012KT 25/14 A2999 RMK A01 T02450135  RH  050%=      5-min Rain = 0
KHO1 191108Z 18012KT 25/14 A2999 RMK A01 T02460135  RH  050%=      5-min Rain = 0
KHO1 191109Z 18013KT 25/14 A2999 RMK A01 T02460135  RH  050%=      5-min Rain = 0
KHO1 191110Z 18012KT 25/14 A2999 RMK A01 T02460135  RH  050%=      5-min Rain = 0
KHO1 191111Z 18012KT 25/14 A2999 RMK A01 T02460135  RH  050%=      5-min Rain = 0
KHO1 191112Z 17012KT 25/14 A2999 RMK A01 T02450135  RH  050%=      5-min Rain = 0
KHO1 191113Z 17011KT 25/14 A2999 RMK A01 T02450135  RH  050%=      5-min Rain = 0
KHO1 191114Z 17012KT 25/14 A2999 RMK A01 T02450135  RH  050%=      5-min Rain = 0
KHO1 191115Z 18010KT 25/14 A2999 RMK A01 T02450135  RH  050%=      5-min Rain = 0
KHO1 191116Z 17010KT 24/14 A2999 RMK A01 T02440135  RH  051%=      5-min Rain = 0
KHO1 191117Z 18011KT 24/14 A2999 RMK A01 T02440135  RH  051%=      5-min Rain = 0
KHO1 191118Z 17011KT 24/14 A2999 RMK A01 T02440135  RH  051%=      5-min Rain = 0
KHO1 191119Z 18013KT 25/14 A2999 RMK A01 T02450136  RH  051%=      5-min Rain = 0
KHO1 191120Z 18014KT 25/14 A2999 RMK A01 T02450135  RH  050%=      5-min Rain = 0
KHO1 191121Z 17012KT 25/14 A2999 RMK A01 T02450136  RH  050%=      5-min Rain = 0
KHO1 191122Z 18011KT 25/14 A2999 RMK A01 T02450135  RH  050%=      5-min Rain = 0
KHO1 191123Z 18012KT 24/14 A2999 RMK A01 T02440135  RH  051%=      5-min Rain = 0
KHO1 191124Z 18012KT 24/14 A2999 RMK A01 T02440136  RH  051%=      5-min Rain = 0
KHO1 191125Z 17010KT 24/14 A2999 RMK A01 T02440136  RH  051%=      5-min Rain = 0
KHO1 191126Z 18011KT 24/14 A2999 RMK A01 T02440136  RH  051%=      5-min Rain = 0
KHO1 191127Z 18012KT 24/14 A2999 RMK A01 T02440136  RH  051%=      5-min Rain = 0
KHO1 191128Z 18011KT 24/14 A2999 RMK A01 T02440136  RH  051%=      5-min Rain = 0
KHO1 191129Z 18012KT 24/14 A2999 RMK A01 T02440136  RH  051%=      5-min Rain = 0
KHO1 191130Z 18011KT 24/14 A2999 RMK A01 T02440136  RH  051%=      5-min Rain = 0
KHO1 191131Z 17013KT 24/14 A2999 RMK A01 T02440136  RH  051%=      5-min Rain = 0
KHO1 191132Z 17012KT 24/14 A2999 RMK A01 T02440136  RH  051%=      5-min Rain = 0
KHO1 191133Z 18014KT 24/14 A2999 RMK A01 T02440136  RH  051%=      5-min Rain = 0
KHO1 191134Z 18011KT 24/14 A2999 RMK A01 T02440136  RH  051%=      5-min Rain = 0
KHO1 191135Z 17010KT 24/14 A2999 RMK A01 T02430136  RH  051%=      5-min Rain = 0
KHO1 191136Z 17011KT 24/14 A30 RMK A01 T02430136  RH  051%=      5-min Rain = 0
KHO1 191137Z 18014G19KT 24/14 A2999 RMK A01 T02430136  RH  051%=      5-min Rain = 0
KHO1 191138Z 18013KT 24/14 A2999 RMK A01 T02440136  RH  051%=      5-min Rain = 0
KHO1 191139Z 17014KT 24/14 A2999 RMK A01 T02440136  RH  051%=      5-min Rain = 0
KHO1 191140Z 18012KT 24/14 A2999 RMK A01 T02440136  RH  051%=      5-min Rain = 0
KHO1 191141Z 18014KT 24/14 A2999 RMK A01 T02440136  RH  051%=      5-min Rain = 0
KHO1 191142Z 18015KT 24/14 A2999 RMK A01 T02440136  RH  051%=      5-min Rain = 0
KHO1 191143Z 17012KT 24/14 A30 RMK A01 T02440136  RH  051%=      5-min Rain = 0
KHO1 191144Z 17012KT 24/14 A2999 RMK A01 T02440136  RH  051%=      5-min Rain = 0
KHO1 191145Z 17011KT 24/14 A30 RMK A01 T02430136  RH  051%=      5-min Rain = 0
KHO1 191146Z 17011KT 24/14 A30 RMK A01 T02430136  RH  051%=      5-min Rain = 0
KHO1 191147Z 18012KT 24/14 A30 RMK A01 T02420136  RH  051%=      5-min Rain = 0
KHO1 191148Z 17009KT 24/14 A30 RMK A01 T02420136  RH  052%=      5-min Rain = 0
KHO1 191149Z 18010KT 24/14 A30 RMK A01 T02420136  RH  052%=      5-min Rain = 0
KHO1 191150Z 17012G17KT 24/14 A30 RMK A01 T02420136  RH  052%=      5-min Rain = 0
KHO1 191151Z 17012KT 24/14 A30 RMK A01 T02420137  RH  052%=      5-min Rain = 0
KHO1 191152Z 17010KT 24/14 A30 RMK A01 T02420136  RH  052%=      5-min Rain = 0
KHO1 191153Z 17011G16KT 24/14 A30 RMK A01 T02410136  RH  052%=      5-min Rain = 0
KHO1 191154Z 18012KT 24/14 A30 RMK A01 T02410137  RH  052%=      5-min Rain = 0
KHO1 191155Z 18011KT 24/14 A30 RMK A01 T02410137  RH  052%=      5-min Rain = 0
KHO1 191156Z 18012KT 24/14 A30 RMK A01 T02410137  RH  052%=      5-min Rain = 0
KHO1 191157Z 17012KT 24/14 A30 RMK A01 T02410137  RH  052%=      5-min Rain = 0
KHO1 191158Z 18012KT 24/14 A30 RMK A01 T02410137  RH  052%=      5-min Rain = 0
KHO1 191159Z 17011KT 24/14 A30 RMK A01 T02410137  RH  052%=      5-min Rain = 0
KHO1 191200Z 18012KT 24/14 A30 RMK A01 T02410137  RH  052%=      5-min Rain = 0
KHO1 191201Z 18010KT 24/14 A30 RMK A01 T02410136  RH  052%=      5-min Rain = 0
KHO1 191202Z 17012KT 24/14 A30 RMK A01 T02410136  RH  052%=      5-min Rain = 0
KHO1 191203Z 18012KT 24/14 A30 RMK A01 T02410136  RH  052%=      5-min Rain = 0
KHO1 191204Z 17011KT 24/14 A30 RMK A01 T02400136  RH  052%=      5-min Rain = 0
KHO1 191205Z 18011KT 24/14 A30 RMK A01 T02400136  RH  052%=      5-min Rain = 0
KHO1 191206Z 17013KT 24/14 A30 RMK A01 T02400136  RH  052%=      5-min Rain = 0
KHO1 191207Z 17012KT 24/14 A30 RMK A01 T02400136  RH  052%=      5-min Rain = 0
KHO1 191208Z 18011KT 24/14 A30 RMK A01 T02400136  RH  052%=      5-min Rain = 0
KHO1 191209Z 18011KT 24/14 A30 RMK A01 T02400136  RH  052%=      5-min Rain = 0
KHO1 191210Z 18011KT 24/14 A30 RMK A01 T02400136  RH  052%=      5-min Rain = 0
KHO1 191211Z 18013KT 24/14 A30 RMK A01 T02400136  RH  052%=      5-min Rain = 0
KHO1 191212Z 18012KT 24/14 A30 RMK A01 T02400136  RH  052%=      5-min Rain = 0
KHO1 191213Z 18012KT 24/14 A30 RMK A01 T02400136  RH  052%=      5-min Rain = 0
KHO1 191214Z 18012KT 24/14 A30 RMK A01 T02400136  RH  052%=      5-min Rain = 0
KHO1 191215Z 18011KT 24/14 A30 RMK A01 T02390136  RH  052%=      5-min Rain = 0
KHO1 191216Z 18011KT 24/14 A30 RMK A01 T02390136  RH  052%=      5-min Rain = 0
KHO1 191217Z 18011KT 24/14 A30 RMK A01 T02390136  RH  052%=      5-min Rain = 0
KHO1 191218Z 18011KT 24/14 A30 RMK A01 T02390136  RH  053%=      5-min Rain = 0
KHO1 191219Z 18012KT 24/14 A30 RMK A01 T02390136  RH  053%=      5-min Rain = 0
KHO1 191220Z 17012KT 24/14 A30 RMK A01 T02390136  RH  052%=      5-min Rain = 0
KHO1 191221Z 17011KT 24/14 A30 RMK A01 T02390136  RH  053%=      5-min Rain = 0
KHO1 191222Z 17011KT 24/14 A30 RMK A01 T02390136  RH  053%=      5-min Rain = 0
KHO1 191223Z 17010KT 24/14 A30 RMK A01 T02380136  RH  053%=      5-min Rain = 0
KHO1 191224Z 18012KT 24/14 A30 RMK A01 T02380136  RH  053%=      5-min Rain = 0
KHO1 191225Z 18013KT 24/14 A30 RMK A01 T02380136  RH  053%=      5-min Rain = 0
KHO1 191226Z 17014KT 24/14 A30 RMK A01 T02380135  RH  052%=      5-min Rain = 0
KHO1 191227Z 17010KT 24/14 A30 RMK A01 T02380136  RH  053%=      5-min Rain = 0
KHO1 191228Z 17010KT 24/14 A3001 RMK A01 T02380136  RH  053%=      5-min Rain = 0
KHO1 191229Z 17012KT 24/14 A3001 RMK A01 T02380135  RH  053%=      5-min Rain = 0
KHO1 191230Z 17011KT 24/14 A3001 RMK A01 T02380135  RH  052%=      5-min Rain = 0
KHO1 191231Z 17012KT 24/14 A3001 RMK A01 T02380135  RH  052%=      5-min Rain = 0
KHO1 191232Z 17012KT 24/14 A3001 RMK A01 T02380135  RH  052%=      5-min Rain = 0
KHO1 191233Z 18013KT 24/14 A30 RMK A01 T02380135  RH  052%=      5-min Rain = 0
KHO1 191234Z 18012KT 24/14 A3001 RMK A01 T02380135  RH  052%=      5-min Rain = 0
KHO1 191235Z 18011G16KT 24/14 A3001 RMK A01 T02380135  RH  052%=      5-min Rain = 0
KHO1 191236Z 18012KT 24/13 A3001 RMK A01 T02380134  RH  052%=      5-min Rain = 0
KHO1 191237Z 18012KT 24/13 A3001 RMK A01 T02380134  RH  052%=      5-min Rain = 0
KHO1 191238Z 18013KT 24/13 A3001 RMK A01 T02390134  RH  052%=      5-min Rain = 0
KHO1 191239Z 18013KT 24/13 A3001 RMK A01 T02390134  RH  052%=      5-min Rain = 0
KHO1 191240Z 18012KT 24/13 A3001 RMK A01 T02390134  RH  052%=      5-min Rain = 0
KHO1 191241Z 18011KT 24/13 A3001 RMK A01 T02390134  RH  052%=      5-min Rain = 0
KHO1 191242Z 18012KT 24/13 A3001 RMK A01 T02390134  RH  052%=      5-min Rain = 0
KHO1 191243Z 18010KT 24/13 A3001 RMK A01 T02390134  RH  052%=      5-min Rain = 0
KHO1 191244Z 17013KT 24/13 A3001 RMK A01 T02390134  RH  052%=      5-min Rain = 0
KHO1 191245Z 18012KT 24/13 A3001 RMK A01 T02390134  RH  052%=      5-min Rain = 0
KHO1 191246Z 18014KT 24/13 A3001 RMK A01 T02390133  RH  051%=      5-min Rain = 0
KHO1 191247Z 18012KT 24/13 A3001 RMK A01 T02390134  RH  051%=      5-min Rain = 0
KHO1 191248Z 18012KT 24/13 A3001 RMK A01 T02400134  RH  051%=      5-min Rain = 0
KHO1 191249Z 18012KT 24/13 A3001 RMK A01 T02400134  RH  051%=      5-min Rain = 0
KHO1 191250Z 18013KT 24/13 A3001 RMK A01 T02400134  RH  051%=      5-min Rain = 0
KHO1 191251Z 18013KT 24/13 A3001 RMK A01 T02400133  RH  051%=      5-min Rain = 0
KHO1 191252Z 17015KT 24/13 A3001 RMK A01 T02400133  RH  051%=      5-min Rain = 0
KHO1 191253Z 18012KT 24/13 A3001 RMK A01 T02400133  RH  051%=      5-min Rain = 0
KHO1 191254Z 18015KT 24/13 A3001 RMK A01 T02400133  RH  051%=      5-min Rain = 0
KHO1 191255Z 18012KT 24/13 A3001 RMK A01 T02410134  RH  051%=      5-min Rain = 0
KHO1 191256Z 17013KT 24/13 A3001 RMK A01 T02410133  RH  051%=      5-min Rain = 0
KHO1 191257Z 17013KT 24/13 A3001 RMK A01 T02410133  RH  051%=      5-min Rain = 0
KHO1 191258Z 18014KT 24/13 A3001 RMK A01 T02410133  RH  051%=      5-min Rain = 0
KHO1 191259Z 18013KT 24/13 A3001 RMK A01 T02410133  RH  051%=      5-min Rain = 0
KHO1 191300Z 17015KT 24/13 A3001 RMK A01 T02420133  RH  051%=      5-min Rain = 0
KHO1 191301Z 18013KT 24/13 A3001 RMK A01 T02420133  RH  051%=      5-min Rain = 0
KHO1 191302Z 17013KT 24/13 A3001 RMK A01 T02420133  RH  051%=      5-min Rain = 0
KHO1 191303Z 18012KT 24/13 A3001 RMK A01 T02420133  RH  051%=      5-min Rain = 0
KHO1 191304Z 18015KT 24/13 A3001 RMK A01 T02420133  RH  050%=      5-min Rain = 0
KHO1 191305Z 18013KT 24/13 A3001 RMK A01 T02420133  RH  050%=      5-min Rain = 0
KHO1 191306Z 17012KT 24/13 A3001 RMK A01 T02430134  RH  050%=      5-min Rain = 0
KHO1 191307Z 17013KT 24/13 A3001 RMK A01 T02430134  RH  050%=      5-min Rain = 0
KHO1 191308Z 17014KT 24/13 A3001 RMK A01 T02430133  RH  050%=      5-min Rain = 0
KHO1 191309Z 18011KT 24/13 A3001 RMK A01 T02430134  RH  050%=      5-min Rain = 0
KHO1 191310Z 17010G16KT 24/13 A3001 RMK A01 T02440134  RH  050%=      5-min Rain = 0
KHO1 191311Z 17016KT 24/13 A3001 RMK A01 T02440133  RH  050%=      5-min Rain = 0
KHO1 191312Z 17014KT 24/13 A3001 RMK A01 T02440134  RH  050%=      5-min Rain = 0
KHO1 191313Z 17012KT 24/13 A3001 RMK A01 T02440134  RH  050%=      5-min Rain = 0
KHO1 191314Z 18013KT 25/13 A3001 RMK A01 T02450134  RH  050%=      5-min Rain = 0
KHO1 191315Z 17013KT 25/13 A3001 RMK A01 T02450134  RH  050%=      5-min Rain = 0
KHO1 191316Z 17015KT 25/13 A3001 RMK A01 T02460134  RH  050%=      5-min Rain = 0
KHO1 191317Z 17015KT 25/13 A3001 RMK A01 T02460134  RH  050%=      5-min Rain = 0
KHO1 191318Z 17016KT 25/13 A3001 RMK A01 T02460133  RH  049%=      5-min Rain = 0
KHO1 191319Z 18013KT 25/13 A3001 RMK A01 T02460134  RH  050%=      5-min Rain = 0
KHO1 191320Z 18015KT 25/13 A3001 RMK A01 T02470134  RH  049%=      5-min Rain = 0
KHO1 191321Z 17011KT 25/14 A3001 RMK A01 T02480135  RH  049%=      5-min Rain = 0
KHO1 191322Z 18010G16KT 25/14 A3001 RMK A01 T02490135  RH  049%=      5-min Rain = 0
KHO1 191323Z 18015KT 25/13 A3001 RMK A01 T02490134  RH  049%=      5-min Rain = 0
KHO1 191324Z 18014KT 25/13 A3001 RMK A01 T02490134  RH  049%=      5-min Rain = 0
KHO1 191325Z 17012KT 25/13 A3001 RMK A01 T02490134  RH  049%=      5-min Rain = 0
KHO1 191326Z 17012KT 25/14 A3001 RMK A01 T02490135  RH  049%=      5-min Rain = 0
KHO1 191327Z 18015KT 25/13 A3001 RMK A01 T02500134  RH  049%=      5-min Rain = 0
KHO1 191328Z 18016KT 25/13 A3001 RMK A01 T02500134  RH  049%=      5-min Rain = 0
KHO1 191329Z 18013KT 25/13 A3002 RMK A01 T02500134  RH  049%=      5-min Rain = 0
KHO1 191330Z 18012KT 25/13 A3002 RMK A01 T02510134  RH  048%=      5-min Rain = 0
KHO1 191331Z 18011KT 25/14 A3001 RMK A01 T02510135  RH  048%=      5-min Rain = 0
KHO1 191332Z 18012KT 25/14 A3002 RMK A01 T02520135  RH  048%=      5-min Rain = 0
KHO1 191333Z 18017KT 25/13 A3001 RMK A01 T02520134  RH  048%=      5-min Rain = 0
KHO1 191334Z 18016KT 25/13 A3002 RMK A01 T02520134  RH  048%=      5-min Rain = 0
KHO1 191335Z 18015KT 25/13 A3002 RMK A01 T02530134  RH  048%=      5-min Rain = 0
KHO1 191336Z 18017KT 25/13 A3002 RMK A01 T02530134  RH  048%=      5-min Rain = 0
KHO1 191337Z 18016KT 25/13 A3002 RMK A01 T02530134  RH  048%=      5-min Rain = 0
KHO1 191338Z 18014G19KT 25/13 A3002 RMK A01 T02530134  RH  048%=      5-min Rain = 0
KHO1 191339Z 18016KT 25/14 A3002 RMK A01 T02530135  RH  048%=      5-min Rain = 0
KHO1 191340Z 18013KT 25/14 A3002 RMK A01 T02540135  RH  048%=      5-min Rain = 0
KHO1 191341Z 18015KT 26/14 A3002 RMK A01 T02550135  RH  047%=      5-min Rain = 0
KHO1 191342Z 18014KT 26/13 A3002 RMK A01 T02550134  RH  047%=      5-min Rain = 0
KHO1 191343Z 18016KT 26/14 A3002 RMK A01 T02550135  RH  047%=      5-min Rain = 0
KHO1 191344Z 18015KT 26/13 A3002 RMK A01 T02550134  RH  047%=      5-min Rain = 0
KHO1 191345Z 18016KT 26/14 A3002 RMK A01 T02550135  RH  047%=      5-min Rain = 0
KHO1 191346Z 18016KT 26/14 A3002 RMK A01 T02550135  RH  047%=      5-min Rain = 0
KHO1 191347Z 19013KT 26/14 A3002 RMK A01 T02560135  RH  047%=      5-min Rain = 0
KHO1 191348Z 18013KT 26/14 A3002 RMK A01 T02580136  RH  047%=      5-min Rain = 0
KHO1 191349Z 18014KT 26/14 A3002 RMK A01 T02590135  RH  046%=      5-min Rain = 0
KHO1 191350Z 18014KT 26/13 A3002 RMK A01 T02590134  RH  046%=      5-min Rain = 0
KHO1 191351Z 18015KT 26/14 A3002 RMK A01 T02580135  RH  046%=      5-min Rain = 0
KHO1 191352Z 17014G19KT 26/14 A3002 RMK A01 T02590135  RH  046%=      5-min Rain = 0
KHO1 191353Z 18016KT 26/14 A3002 RMK A01 T02590135  RH  046%=      5-min Rain = 0
KHO1 191354Z 18015KT 26/14 A3002 RMK A01 T02590135  RH  046%=      5-min Rain = 0
KHO1 191355Z 17013KT 26/14 A3002 RMK A01 T02590136  RH  046%=      5-min Rain = 0
KHO1 191356Z 18014KT 26/14 A3002 RMK A01 T02600135  RH  046%=      5-min Rain = 0
KHO1 191357Z 17015KT 26/14 A3002 RMK A01 T02600135  RH  046%=      5-min Rain = 0
KHO1 191358Z 17014KT 26/14 A3002 RMK A01 T02600135  RH  046%=      5-min Rain = 0
KHO1 191359Z 17012KT 26/14 A3002 RMK A01 T02610136  RH  046%=      5-min Rain = 0
KHO1 191400Z 18015KT 26/14 A3002 RMK A01 T02610135  RH  046%=      5-min Rain = 0
KHO1 191401Z 18013KT 26/14 A3002 RMK A01 T02620135  RH  046%=      5-min Rain = 0
KHO1 191402Z 18012KT 26/14 A3002 RMK A01 T02620136  RH  046%=      5-min Rain = 0
KHO1 191403Z 18013KT 26/14 A3002 RMK A01 T02630135  RH  045%=      5-min Rain = 0
KHO1 191404Z 18014KT 26/14 A3002 RMK A01 T02640135  RH  045%=      5-min Rain = 0
KHO1 191405Z 18014KT 26/14 A3002 RMK A01 T02640135  RH  045%=      5-min Rain = 0
KHO1 191406Z 18014KT 27/14 A3002 RMK A01 T02650135  RH  045%=      5-min Rain = 0
KHO1 191407Z 18015KT 26/13 A3002 RMK A01 T02640134  RH  045%=      5-min Rain = 0
KHO1 191408Z 18013KT 26/14 A3002 RMK A01 T02640135  RH  045%=      5-min Rain = 0
KHO1 191409Z 18013KT 27/14 A3002 RMK A01 T02650135  RH  045%=      5-min Rain = 0
KHO1 191410Z 17014KT 27/14 A3002 RMK A01 T02660135  RH  044%=      5-min Rain = 0
KHO1 191411Z 17014KT 27/13 A3002 RMK A01 T02660134  RH  044%=      5-min Rain = 0
KHO1 191412Z 17012KT 27/14 A3002 RMK A01 T02670136  RH  044%=      5-min Rain = 0
KHO1 191413Z 17012KT 27/14 A3002 RMK A01 T02680136  RH  044%=      5-min Rain = 0
KHO1 191414Z 18011KT 27/14 A3002 RMK A01 T02700136  RH  044%=      5-min Rain = 0
KHO1 191415Z 19013KT 27/14 A3002 RMK A01 T02700135  RH  043%=      5-min Rain = 0
KHO1 191416Z 18012KT 27/14 A3002 RMK A01 T02700135  RH  043%=      5-min Rain = 0
KHO1 191417Z 17014KT 27/14 A3002 RMK A01 T02710135  RH  043%=      5-min Rain = 0
KHO1 191418Z 19013KT 27/14 A3002 RMK A01 T02710135  RH  043%=      5-min Rain = 0
KHO1 191419Z 19013KT 27/13 A3002 RMK A01 T02710134  RH  043%=      5-min Rain = 0
KHO1 191420Z 18015KT 27/13 A3002 RMK A01 T02710133  RH  043%=      5-min Rain = 0
KHO1 191421Z 18014KT 27/14 A3002 RMK A01 T02710135  RH  043%=      5-min Rain = 0
KHO1 191422Z 18015KT 27/13 A3002 RMK A01 T02710133  RH  043%=      5-min Rain = 0
KHO1 191423Z 18012KT 27/14 A3002 RMK A01 T02720135  RH  043%=      5-min Rain = 0
KHO1 191424Z 18013KT 27/13 A3002 RMK A01 T02740134  RH  042%=      5-min Rain = 0
KHO1 191425Z 19014KT 27/13 A3002 RMK A01 T02740134  RH  042%=      5-min Rain = 0
KHO1 191426Z 18013KT 27/13 A3002 RMK A01 T02740133  RH  042%=      5-min Rain = 0
KHO1 191427Z 19010KT 28/14 A3002 RMK A01 T02760136  RH  042%=      5-min Rain = 0
KHO1 191428Z 18012G17KT 28/14 A3002 RMK A01 T02780135  RH  041%=      5-min Rain = 0
KHO1 191429Z 18015KT 28/13 A3002 RMK A01 T02770133  RH  041%=      5-min Rain = 0
KHO1 191430Z 18014KT 28/13 A3002 RMK A01 T02750133  RH  041%=      5-min Rain = 0
KHO1 191431Z 17013KT 28/13 A3002 RMK A01 T02750133  RH  042%=      5-min Rain = 0
KHO1 191432Z 17013KT 28/13 A3002 RMK A01 T02750133  RH  042%=      5-min Rain = 0
KHO1 191433Z 17013KT 28/13 A3002 RMK A01 T02770134  RH  042%=      5-min Rain = 0
KHO1 191434Z 18013KT 28/13 A3002 RMK A01 T02770134  RH  041%=      5-min Rain = 0
KHO1 191435Z 18011KT 28/13 A3002 RMK A01 T02760134  RH  042%=      5-min Rain = 0
KHO1 191436Z 18013KT 28/14 A3002 RMK A01 T02780135  RH  041%=      5-min Rain = 0
KHO1 191437Z 18012KT 28/13 A3002 RMK A01 T02790134  RH  041%=      5-min Rain = 0
KHO1 191438Z 18014KT 28/13 A3002 RMK A01 T02800132  RH  040%=      5-min Rain = 0
KHO1 191439Z 18014KT 28/13 A3002 RMK A01 T02790131  RH  040%=      5-min Rain = 0
KHO1 191440Z 18012KT 28/13 A3002 RMK A01 T02800133  RH  040%=      5-min Rain = 0
KHO1 191441Z 18013KT 28/13 A3002 RMK A01 T02810134  RH  040%=      5-min Rain = 0
KHO1 191442Z 18013KT 28/13 A3002 RMK A01 T02820133  RH  040%=      5-min Rain = 0
KHO1 191443Z 19014KT 28/13 A3002 RMK A01 T02820132  RH  040%=      5-min Rain = 0
KHO1 191444Z 18012KT 28/13 A3002 RMK A01 T02820133  RH  040%=      5-min Rain = 0
KHO1 191445Z 18014KT 28/13 A3002 RMK A01 T02830132  RH  039%=      5-min Rain = 0
KHO1 191446Z 18013KT 29/13 A3002 RMK A01 T02850132  RH  039%=      5-min Rain = 0
KHO1 191447Z 19014KT 29/13 A3002 RMK A01 T02850131  RH  039%=      5-min Rain = 0
KHO1 191448Z 20011KT 29/13 A3002 RMK A01 T02850132  RH  039%=      5-min Rain = 0
KHO1 191449Z 19011KT 29/13 A3002 RMK A01 T02870133  RH  039%=      5-min Rain = 0
KHO1 191450Z 18011KT 29/13 A3002 RMK A01 T02880132  RH  038%=      5-min Rain = 0
KHO1 191451Z 18012KT 29/13 A3002 RMK A01 T02870133  RH  039%=      5-min Rain = 0
KHO1 191452Z 18011KT 29/13 A3002 RMK A01 T02890134  RH  039%=      5-min Rain = 0
KHO1 191453Z 18012KT 29/13 A3002 RMK A01 T02880132  RH  038%=      5-min Rain = 0
KHO1 191454Z 18013KT 29/13 A3002 RMK A01 T02890131  RH  038%=      5-min Rain = 0
KHO1 191455Z 19011KT 29/13 A3002 RMK A01 T02880131  RH  038%=      5-min Rain = 0
KHO1 191456Z 19012KT 29/13 A3002 RMK A01 T02890131  RH  038%=      5-min Rain = 0
KHO1 191457Z 18012KT 29/13 A3002 RMK A01 T02890131  RH  038%=      5-min Rain = 0
KHO1 191458Z 18012KT 29/13 A3002 RMK A01 T02890131  RH  038%=      5-min Rain = 0
KHO1 191459Z 18011KT 29/13 A3002 RMK A01 T02900132  RH  038%=      5-min Rain = 0
KHO1 191500Z 18012KT 29/13 A3002 RMK A01 T02900131  RH  038%=      5-min Rain = 0
KHO1 191501Z 19010KT 29/13 A3002 RMK A01 T02910133  RH  038%=      5-min Rain = 0
KHO1 191502Z 18012KT 30/13 A3002 RMK A01 T02950132  RH  037%=      5-min Rain = 0
KHO1 191503Z 17013KT 30/13 A3002 RMK A01 T02960132  RH  036%=      5-min Rain = 0
KHO1 191504Z 19012KT 30/13 A3002 RMK A01 T02970129  RH  036%=      5-min Rain = 0
KHO1 191505Z 19016KT 30/12 A3002 RMK A01 T02960124  RH  035%=      5-min Rain = 0
KHO1 191506Z 20013KT 30/13 A3002 RMK A01 T02950125  RH  035%=      5-min Rain = 0
KHO1 191507Z 19012KT 29/13 A3002 RMK A01 T02940128  RH  036%=      5-min Rain = 0
KHO1 191508Z 19011KT 30/13 A3002 RMK A01 T02960131  RH  036%=      5-min Rain = 0
KHO1 191509Z 20011KT 30/13 A3002 RMK A01 T02980126  RH  035%=      5-min Rain = 0
KHO1 191510Z 20010KT 30/13 A3002 RMK A01 T03000128  RH  035%=      5-min Rain = 0
KHO1 191511Z 18011KT 30/13 A3002 RMK A01 T03010130  RH  035%=      5-min Rain = 0
KHO1 191512Z 18013KT 30/13 A3002 RMK A01 T03010128  RH  035%=      5-min Rain = 0
KHO1 191513Z 19012KT 30/13 A3002 RMK A01 T03010127  RH  034%=      5-min Rain = 0
KHO1 191514Z 19014KT 30/13 A3002 RMK A01 T03000125  RH  034%=      5-min Rain = 0
KHO1 191515Z 18013KT 30/13 A3002 RMK A01 T02990125  RH  034%=      5-min Rain = 0
KHO1 191516Z 19014KT 30/13 A3002 RMK A01 T02980125  RH  034%=      5-min Rain = 0
KHO1 191517Z 19014KT 30/13 A3002 RMK A01 T02980126  RH  035%=      5-min Rain = 0
KHO1 191518Z 19014KT 30/13 A3002 RMK A01 T02990125  RH  034%=      5-min Rain = 0
KHO1 191519Z 19016KT 30/12 A3002 RMK A01 T03000124  RH  034%=      5-min Rain = 0
KHO1 191520Z 20015KT 30/12 A3002 RMK A01 T03000124  RH  034%=      5-min Rain = 0
KHO1 191521Z 20014KT 30/12 A3002 RMK A01 T02980124  RH  034%=      5-min Rain = 0
KHO1 191522Z 19015KT 30/12 A3002 RMK A01 T02990123  RH  034%=      5-min Rain = 0
KHO1 191523Z 19014KT 30/12 A3002 RMK A01 T03000123  RH  034%=      5-min Rain = 0
KHO1 191524Z 19015KT 30/12 A3002 RMK A01 T03010123  RH  033%=      5-min Rain = 0
KHO1 191525Z 19013KT 30/12 A3002 RMK A01 T03010122  RH  033%=      5-min Rain = 0
KHO1 191526Z 20017KT 30/12 A3002 RMK A01 T03010122  RH  033%=      5-min Rain = 0
KHO1 191527Z 20015KT 30/12 A3002 RMK A01 T03020122  RH  033%=      5-min Rain = 0
KHO1 191528Z 20013KT 30/13 A3002 RMK A01 T03020125  RH  034%=      5-min Rain = 0
KHO1 191529Z 19015KT 30/12 A3002 RMK A01 T03030123  RH  033%=      5-min Rain = 0
KHO1 191530Z 19016KT 30/12 A3002 RMK A01 T03020123  RH  033%=      5-min Rain = 0
KHO1 191531Z 19015KT 30/12 A3002 RMK A01 T03030123  RH  033%=      5-min Rain = 0
KHO1 191532Z 18015KT 30/12 A3002 RMK A01 T03030124  RH  033%=      5-min Rain = 0
KHO1 191533Z 19014KT 30/12 A3002 RMK A01 T03020124  RH  033%=      5-min Rain = 0
KHO1 191534Z 19013KT 30/13 A3002 RMK A01 T03040125  RH  033%=      5-min Rain = 0
KHO1 191535Z 19016KT 30/12 A3002 RMK A01 T03040123  RH  033%=      5-min Rain = 0
KHO1 191536Z 20013KT 31/12 A3002 RMK A01 T03050124  RH  033%=      5-min Rain = 0
KHO1 191537Z 20012KT 31/12 A3002 RMK A01 T03060124  RH  033%=      5-min Rain = 0
KHO1 191538Z 18013KT 31/13 A3002 RMK A01 T03080125  RH  033%=      5-min Rain = 0
KHO1 191539Z 19016KT 31/12 A3002 RMK A01 T03060123  RH  032%=      5-min Rain = 0
KHO1 191540Z 19013G18KT 31/12 A3002 RMK A01 T03050123  RH  033%=      5-min Rain = 0
KHO1 191541Z 19012KT 31/12 A3002 RMK A01 T03060123  RH  033%=      5-min Rain = 0
KHO1 191542Z 19011KT 31/12 A3002 RMK A01 T03070123  RH  032%=      5-min Rain = 0
KHO1 191543Z 19013KT 31/13 A3002 RMK A01 T03090125  RH  032%=      5-min Rain = 0
KHO1 191544Z 19011KT 31/13 A3002 RMK A01 T03090125  RH  032%=      5-min Rain = 0
KHO1 191545Z 18014KT 31/12 A3002 RMK A01 T03100124  RH  032%=      5-min Rain = 0
KHO1 191546Z 19013KT 31/12 A3002 RMK A01 T03090122  RH  032%=      5-min Rain = 0
KHO1 191547Z 19013KT 31/12 A3002 RMK A01 T03080122  RH  032%=      5-min Rain = 0
KHO1 191548Z 19012KT 31/13 A3002 RMK A01 T03090125  RH  032%=      5-min Rain = 0
KHO1 191549Z 19015KT 31/12 A3002 RMK A01 T03110120  RH  031%=      5-min Rain = 0
KHO1 191550Z 19015KT 31/12 A3002 RMK A01 T03110118  RH  031%=      5-min Rain = 0
KHO1 191551Z 20015KT 31/12 A3002 RMK A01 T03110121  RH  031%=      5-min Rain = 0
KHO1 191552Z 19013KT 31/12 A3002 RMK A01 T03110121  RH  031%=      5-min Rain = 0
KHO1 191553Z 19014KT 31/12 A3002 RMK A01 T03130121  RH  031%=      5-min Rain = 0
KHO1 191554Z 19015KT 31/12 A3002 RMK A01 T03130119  RH  030%=      5-min Rain = 0
KHO1 191555Z 19012KT 32/12 A3002 RMK A01 T03150120  RH  030%=      5-min Rain = 0
KHO1 191556Z 20012KT 32/12 A3002 RMK A01 T03150118  RH  030%=      5-min Rain = 0
KHO1 191557Z 20014KT 32/12 A3002 RMK A01 T03150118  RH  030%=      5-min Rain = 0
KHO1 191558Z 19015KT 31/12 A3002 RMK A01 T03130117  RH  030%=      5-min Rain = 0
KHO1 191559Z 19014KT 31/12 A3002 RMK A01 T03140118  RH  030%=      5-min Rain = 0
KHO1 191600Z 20010KT 32/12 A3002 RMK A01 T03150120  RH  030%=      5-min Rain = 0
KHO1 191601Z 21010KT 32/12 A3001 RMK A01 T03160119  RH  030%=      5-min Rain = 0
KHO1 191602Z 20014KT 32/12 A3002 RMK A01 T03160118  RH  030%=      5-min Rain = 0
KHO1 191603Z 20014KT 32/12 A3002 RMK A01 T03160118  RH  030%=      5-min Rain = 0
KHO1 191604Z 19014KT 32/12 A3002 RMK A01 T03170120  RH  030%=      5-min Rain = 0
KHO1 191605Z 19014KT 32/12 A3002 RMK A01 T03160118  RH  030%=      5-min Rain = 0
KHO1 191606Z 20012KT 32/12 A3002 RMK A01 T03170116  RH  029%=      5-min Rain = 0
KHO1 191607Z 20012KT 32/12 A3001 RMK A01 T03190117  RH  029%=      5-min Rain = 0
KHO1 191608Z 20013KT 32/12 A3001 RMK A01 T03220118  RH  029%=      5-min Rain = 0
KHO1 191609Z 19013KT 32/12 A3001 RMK A01 T03190116  RH  029%=      5-min Rain = 0
KHO1 191610Z 20016KT 32/12 A3001 RMK A01 T03210117  RH  029%=      5-min Rain = 0
KHO1 191611Z 19013KT 32/12 A3001 RMK A01 T03200115  RH  029%=      5-min Rain = 0
KHO1 191612Z 19014KT 32/12 A3002 RMK A01 T03200115  RH  028%=      5-min Rain = 0
KHO1 191613Z 20014G20KT 32/12 A3002 RMK A01 T03220117  RH  029%=      5-min Rain = 0
KHO1 191614Z 20014KT 32/12 A3002 RMK A01 T03240117  RH  028%=      5-min Rain = 0
KHO1 191615Z 20014KT 32/12 A3002 RMK A01 T03240117  RH  028%=      5-min Rain = 0
KHO1 191616Z 21014KT 32/12 A3002 RMK A01 T03230118  RH  029%=      5-min Rain = 0
KHO1 191617Z 20015KT 32/12 A3001 RMK A01 T03230117  RH  028%=      5-min Rain = 0
KHO1 191618Z 19015KT 32/11 A3001 RMK A01 T03230114  RH  028%=      5-min Rain = 0
KHO1 191619Z 18015KT 32/11 A3001 RMK A01 T03240114  RH  028%=      5-min Rain = 0
KHO1 191620Z 20014KT 32/12 A3001 RMK A01 T03230115  RH  028%=      5-min Rain = 0
KHO1 191621Z 21013KT 32/11 A3002 RMK A01 T03240114  RH  028%=      5-min Rain = 0
KHO1 191622Z 21012KT 32/12 A3002 RMK A01 T03240116  RH  028%=      5-min Rain = 0
KHO1 191623Z 20013G18KT 33/12 A3002 RMK A01 T03260116  RH  028%=      5-min Rain = 0
KHO1 191624Z 20015KT 32/12 A3002 RMK A01 T03240115  RH  028%=      5-min Rain = 0
KHO1 191625Z 20014KT 32/12 A3002 RMK A01 T03240115  RH  028%=      5-min Rain = 0
KHO1 191626Z 19010KT 32/11 A3001 RMK A01 T03230114  RH  028%=      5-min Rain = 0
KHO1 191627Z 20012KT 32/12 A3001 RMK A01 T03240117  RH  028%=      5-min Rain = 0
KHO1 191628Z 19017KT 33/11 A3002 RMK A01 T03250114  RH  028%=      5-min Rain = 0
KHO1 191629Z 20018KT 32/11 A3002 RMK A01 T03240114  RH  028%=      5-min Rain = 0
KHO1 191630Z 20014KT 32/11 A3002 RMK A01 T03240114  RH  028%=      5-min Rain = 0
KHO1 191631Z 20014KT 32/11 A3002 RMK A01 T03240114  RH  028%=      5-min Rain = 0
KHO1 191632Z 20016KT 33/12 A3002 RMK A01 T03250116  RH  028%=      5-min Rain = 0
KHO1 191633Z 20015KT 33/11 A3002 RMK A01 T03250114  RH  027%=      5-min Rain = 0
KHO1 191634Z 20017KT 33/12 A3002 RMK A01 T03250116  RH  028%=      5-min Rain = 0
KHO1 191635Z 20013KT 33/12 A3002 RMK A01 T03260117  RH  028%=      5-min Rain = 0
KHO1 191636Z 19014KT 33/12 A3002 RMK A01 T03250116  RH  028%=      5-min Rain = 0
KHO1 191637Z 19013KT 32/12 A3001 RMK A01 T03240115  RH  028%=      5-min Rain = 0
KHO1 191638Z 19014KT 32/12 A3001 RMK A01 T03240116  RH  028%=      5-min Rain = 0
KHO1 191639Z 19014KT 33/12 A3001 RMK A01 T03280119  RH  028%=      5-min Rain = 0
KHO1 191640Z 20013KT 33/12 A3002 RMK A01 T03290117  RH  027%=      5-min Rain = 0
KHO1 191641Z 20015KT 33/12 A3002 RMK A01 T03280117  RH  028%=      5-min Rain = 0
KHO1 191642Z 20017KT 33/12 A3002 RMK A01 T03290115  RH  027%=      5-min Rain = 0
KHO1 191643Z 20014KT 33/11 A3002 RMK A01 T03270114  RH  027%=      5-min Rain = 0
KHO1 191644Z 19016KT 33/12 A3001 RMK A01 T03280116  RH  027%=      5-min Rain = 0
KHO1 191645Z 19012KT 33/12 A3001 RMK A01 T03280116  RH  027%=      5-min Rain = 0
KHO1 191646Z 19011G16KT 33/12 A3001 RMK A01 T03300119  RH  028%=      5-min Rain = 0
KHO1 191647Z 19016KT 33/12 A3001 RMK A01 T03330118  RH  027%=      5-min Rain = 0
KHO1 191648Z 19014G19KT 33/12 A3001 RMK A01 T03310116  RH  027%=      5-min Rain = 0
KHO1 191649Z 19015G20KT 33/12 A3001 RMK A01 T03320117  RH  027%=      5-min Rain = 0
KHO1 191650Z 20015KT 33/12 A3001 RMK A01 T03330116  RH  027%=      5-min Rain = 0
KHO1 191651Z 20011KT 33/12 A3001 RMK A01 T03330118  RH  027%=      5-min Rain = 0
KHO1 191652Z 19009KT 34/12 A3001 RMK A01 T03350119  RH  027%=      5-min Rain = 0
KHO1 191653Z 18014KT 34/12 A3001 RMK A01 T03390119  RH  026%=      5-min Rain = 0
KHO1 191654Z 18012KT 34/12 A3001 RMK A01 T03350116  RH  026%=      5-min Rain = 0
KHO1 191655Z 19011KT 34/12 A3001 RMK A01 T03350117  RH  026%=      5-min Rain = 0
KHO1 191656Z 21011KT 34/12 A3001 RMK A01 T03360116  RH  026%=      5-min Rain = 0
KHO1 191657Z 21012G18KT 34/11 A3001 RMK A01 T03350114  RH  026%=      5-min Rain = 0
KHO1 191658Z 21014G19KT 34/11 A3001 RMK A01 T03360113  RH  026%=      5-min Rain = 0
KHO1 191659Z 21013KT 34/11 A3001 RMK A01 T03380112  RH  025%=      5-min Rain = 0
KHO1 191700Z 21015KT 34/11 A3001 RMK A01 T03380113  RH  026%=      5-min Rain = 0
KHO1 191701Z 21011KT 34/11 A3001 RMK A01 T03360113  RH  026%=      5-min Rain = 0
KHO1 191702Z 19013KT 34/12 A3001 RMK A01 T03350117  RH  026%=      5-min Rain = 0
KHO1 191703Z 18011KT 34/12 A3001 RMK A01 T03360117  RH  026%=      5-min Rain = 0
KHO1 191704Z 19016G21KT 34/12 A3001 RMK A01 T03370116  RH  026%=      5-min Rain = 0
KHO1 191705Z 20015KT 34/12 A3001 RMK A01 T03370115  RH  026%=      5-min Rain = 0
KHO1 191706Z 19013KT 34/12 A3001 RMK A01 T03370115  RH  026%=      5-min Rain = 0
KHO1 191707Z 19013KT 34/11 A3001 RMK A01 T03390114  RH  025%=      5-min Rain = 0
KHO1 191708Z 19013KT 34/11 A3001 RMK A01 T03380113  RH  025%=      5-min Rain = 0
KHO1 191709Z 18011KT 34/11 A3001 RMK A01 T03400113  RH  025%=      5-min Rain = 0
KHO1 191710Z 19013KT 34/12 A3001 RMK A01 T03410116  RH  025%=      5-min Rain = 0
KHO1 191711Z 19016KT 34/11 A3001 RMK A01 T03430112  RH  025%=      5-min Rain = 0
KHO1 191712Z 19016KT 34/11 A3001 RMK A01 T03400111  RH  025%=      5-min Rain = 0
KHO1 191713Z 19015KT 34/11 A3001 RMK A01 T03380112  RH  025%=      5-min Rain = 0
KHO1 191714Z 19012KT 34/11 A3001 RMK A01 T03390114  RH  025%=      5-min Rain = 0
KHO1 191715Z 20015KT 34/11 A3002 RMK A01 T03430113  RH  025%=      5-min Rain = 0
KHO1 191716Z 21014KT 34/11 A3002 RMK A01 T03410108  RH  024%=      5-min Rain = 0
KHO1 191717Z 21012KT 34/11 A3002 RMK A01 T03390111  RH  025%=      5-min Rain = 0
KHO1 191718Z 21013KT 34/11 A3002 RMK A01 T03380114  RH  026%=      5-min Rain = 0
KHO1 191719Z 21011KT 34/11 A3001 RMK A01 T03380113  RH  025%=      5-min Rain = 0
KHO1 191720Z 18015KT 34/11 A3001 RMK A01 T03390112  RH  025%=      5-min Rain = 0
KHO1 191721Z 19013KT 34/11 A3001 RMK A01 T03390112  RH  025%=      5-min Rain = 0
KHO1 191722Z 21014KT 34/11 A3002 RMK A01 T03410111  RH  025%=      5-min Rain = 0
KHO1 191723Z 22015KT 34/11 A3002 RMK A01 T03400107  RH  024%=      5-min Rain = 0
KHO1 191724Z 21014KT 34/11 A3002 RMK A01 T03380110  RH  025%=      5-min Rain = 0
KHO1 191725Z 21013KT 34/11 A3002 RMK A01 T03380112  RH  025%=      5-min Rain = 0
KHO1 191726Z 20010KT 34/11 A3002 RMK A01 T03400114  RH  025%=      5-min Rain = 0
KHO1 191727Z 21015KT 34/11 A3002 RMK A01 T03430112  RH  025%=      5-min Rain = 0
KHO1 191728Z 20014KT 34/11 A3002 RMK A01 T03420110  RH  024%=      5-min Rain = 0
KHO1 191729Z 19013KT 34/11 A3002 RMK A01 T03390110  RH  025%=      5-min Rain = 0
KHO1 191730Z 19010KT 34/11 A3002 RMK A01 T03390112  RH  025%=      5-min Rain = 0
KHO1 191731Z 18012KT 34/11 A3001 RMK A01 T03410112  RH  025%=      5-min Rain = 0
KHO1 191732Z 19014KT 34/11 A3001 RMK A01 T03420112  RH  025%=      5-min Rain = 0
KHO1 191733Z 19011KT 34/11 A3002 RMK A01 T03420111  RH  024%=      5-min Rain = 0
KHO1 191734Z 20010KT 35/11 A3001 RMK A01 T03450114  RH  025%=      5-min Rain = 0
KHO1 191735Z 20011KT 35/12 A3001 RMK A01 T03480116  RH  025%=      5-min Rain = 0
KHO1 191736Z 18011KT 35/11 A3001 RMK A01 T03470114  RH  024%=      5-min Rain = 0
KHO1 191737Z 19014KT 35/11 A3001 RMK A01 T03490112  RH  024%=      5-min Rain = 0
KHO1 191738Z 19013KT 35/11 A3001 RMK A01 T03450109  RH  024%=      5-min Rain = 0
KHO1 191739Z 20011KT 34/11 A3001 RMK A01 T03440113  RH  025%=      5-min Rain = 0
KHO1 191740Z 18013KT 35/11 A3001 RMK A01 T03460111  RH  024%=      5-min Rain = 0
KHO1 191741Z 19014KT 35/11 A3001 RMK A01 T03470112  RH  024%=      5-min Rain = 0
KHO1 191742Z 18013KT 35/11 A3001 RMK A01 T03470111  RH  024%=      5-min Rain = 0
KHO1 191743Z 19013KT 35/11 A3001 RMK A01 T03460109  RH  024%=      5-min Rain = 0
KHO1 191744Z 20010KT 35/11 A3001 RMK A01 T03450111  RH  024%=      5-min Rain = 0
KHO1 191745Z 19010G15KT 35/12 A3001 RMK A01 T03510115  RH  024%=      5-min Rain = 0
KHO1 191746Z 18013G18KT 35/11 A3001 RMK A01 T03510110  RH  023%=      5-min Rain = 0
KHO1 191747Z 18010KT 35/11 A3001 RMK A01 T03470111  RH  024%=      5-min Rain = 0
KHO1 191748Z 20013KT 35/11 A3001 RMK A01 T03490108  RH  023%=      5-min Rain = 0
KHO1 191749Z 19015G20KT 35/11 A3001 RMK A01 T03470105  RH  023%=      5-min Rain = 0
KHO1 191750Z 20013KT 35/11 A3001 RMK A01 T03460107  RH  023%=      5-min Rain = 0
KHO1 191751Z 18011G16KT 35/11 A3001 RMK A01 T03480106  RH  023%=      5-min Rain = 0
KHO1 191752Z 17013KT 35/11 A3001 RMK A01 T03480108  RH  023%=      5-min Rain = 0
KHO1 191753Z 19011KT 35/11 A3001 RMK A01 T03470108  RH  023%=      5-min Rain = 0
KHO1 191754Z 18012KT 35/11 A3001 RMK A01 T03480107  RH  023%=      5-min Rain = 0
KHO1 191755Z 20009KT 35/11 A3001 RMK A01 T03490107  RH  023%=      5-min Rain = 0
KHO1 191756Z 19013KT 35/11 A3001 RMK A01 T03500107  RH  023%=      5-min Rain = 0
KHO1 191757Z 19015KT 35/11 A3001 RMK A01 T03510106  RH  023%=      5-min Rain = 0
KHO1 191758Z 20012KT 35/11 A3001 RMK A01 T03500106  RH  023%=      5-min Rain = 0
KHO1 191759Z 21014KT 35/11 A3001 RMK A01 T03500108  RH  023%=      5-min Rain = 0
KHO1 191800Z 21011KT 35/11 A3001 RMK A01 T03500106  RH  023%=      5-min Rain = 0
KHO1 191801Z 20009KT 35/11 A3001 RMK A01 T03510108  RH  023%=      5-min Rain = 0
KHO1 191802Z 19011KT 35/11 A3001 RMK A01 T03530113  RH  023%=      5-min Rain = 0
KHO1 191803Z 18016KT 36/11 A3001 RMK A01 T03550106  RH  022%=      5-min Rain = 0
KHO1 191804Z 20015KT 35/11 A3001 RMK A01 T03540106  RH  022%=      5-min Rain = 0
KHO1 191805Z 20014KT 35/11 A3001 RMK A01 T03540106  RH  022%=      5-min Rain = 0
KHO1 191806Z 19010KT 35/11 A3001 RMK A01 T03510106  RH  023%=      5-min Rain = 0
KHO1 191807Z 21016KT 35/10 A3001 RMK A01 T03510104  RH  022%=      5-min Rain = 0
KHO1 191808Z 21013KT 35/10 A3001 RMK A01 T03500103  RH  022%=      5-min Rain = 0
KHO1 191809Z 20016KT 35/10 A3001 RMK A01 T03530103  RH  022%=      5-min Rain = 0
KHO1 191810Z 20012KT 35/10 A3001 RMK A01 T03520103  RH  022%=      5-min Rain = 0
KHO1 191811Z 21010KT 35/10 A3001 RMK A01 T03540104  RH  022%=      5-min Rain = 0
KHO1 191812Z 21010KT 36/11 A30 RMK A01 T03560107  RH  022%=      5-min Rain = 0
KHO1 191813Z 22008KT 35/11 A3001 RMK A01 T03530107  RH  022%=      5-min Rain = 0
KHO1 191814Z 20012G19KT 36/11 A30 RMK A01 T03550110  RH  023%=      5-min Rain = 0
KHO1 191815Z 19017KT 36/10 A3001 RMK A01 T03580103  RH  021%=      5-min Rain = 0
KHO1 191816Z 19014KT 36/10 A3001 RMK A01 T03580099  RH  021%=      5-min Rain = 0
KHO1 191817Z 19013KT 36/10 A30 RMK A01 T03590101  RH  021%=      5-min Rain = 0
KHO1 191818Z 19012KT 36/10 A3001 RMK A01 T03570101  RH  021%=      5-min Rain = 0
KHO1 191819Z 18015G20KT 36/11 A30 RMK A01 T03560106  RH  022%=      5-min Rain = 0
KHO1 191820Z 19013KT 36/10 A3001 RMK A01 T03550104  RH  022%=      5-min Rain = 0
KHO1 191821Z 19009KT 36/10 A30 RMK A01 T03580102  RH  021%=      5-min Rain = 0
KHO1 191822Z 20012G17KT 36/10 A30 RMK A01 T03580103  RH  021%=      5-min Rain = 0
KHO1 191823Z 21013KT 36/10 A30 RMK A01 T03590100  RH  021%=      5-min Rain = 0
KHO1 191824Z 21015KT 36/10 A30 RMK A01 T03590102  RH  021%=      5-min Rain = 0
KHO1 191825Z 19013KT 36/10 A30 RMK A01 T03590104  RH  021%=      5-min Rain = 0
KHO1 191826Z 21014KT 36/10 A30 RMK A01 T03580100  RH  021%=      5-min Rain = 0
KHO1 191827Z 21015KT 36/10 A30 RMK A01 T03550100  RH  021%=      5-min Rain = 0
KHO1 191828Z 20010KT 35/10 A30 RMK A01 T03540100  RH  021%=      5-min Rain = 0
KHO1 191829Z 19009KT 36/10 A30 RMK A01 T03550103  RH  022%=      5-min Rain = 0
KHO1 191830Z 20014G20KT 36/11 A30 RMK A01 T03550105  RH  022%=      5-min Rain = 0
KHO1 191831Z 20015KT 36/10 A30 RMK A01 T03560104  RH  022%=      5-min Rain = 0
KHO1 191832Z 19015KT 36/11 A30 RMK A01 T03570107  RH  022%=      5-min Rain = 0
KHO1 191833Z 19016KT 36/10 A30 RMK A01 T03560103  RH  022%=      5-min Rain = 0
KHO1 191834Z 18016KT 36/11 A30 RMK A01 T03560105  RH  022%=      5-min Rain = 0
KHO1 191835Z 18014KT 36/10 A30 RMK A01 T03570104  RH  022%=      5-min Rain = 0
KHO1 191836Z 18014KT 36/10 A30 RMK A01 T03580097  RH  021%=      5-min Rain = 0
KHO1 191837Z 18011KT 36/10 A30 RMK A01 T03570102  RH  021%=      5-min Rain = 0
KHO1 191838Z 19008KT 36/11 A30 RMK A01 T03580106  RH  022%=      5-min Rain = 0
KHO1 191839Z 20008KT 36/11 A30 RMK A01 T03590109  RH  022%=      5-min Rain = 0
KHO1 191840Z 19013G23KT 36/11 A30 RMK A01 T03620107  RH  021%=      5-min Rain = 0
KHO1 191841Z 20013KT 36/10 A30 RMK A01 T03620101  RH  021%=      5-min Rain = 0
KHO1 191842Z 19013KT 36/10 A30 RMK A01 T03600100  RH  021%=      5-min Rain = 0
KHO1 191843Z 20013KT 36/10 A30 RMK A01 T03600102  RH  021%=      5-min Rain = 0
KHO1 191844Z 18013KT 36/10 A30 RMK A01 T03610104  RH  021%=      5-min Rain = 0
KHO1 191845Z 20012KT 36/10 A30 RMK A01 T03600104  RH  021%=      5-min Rain = 0
KHO1 191846Z 21010KT 36/11 A30 RMK A01 T03560105  RH  022%=      5-min Rain = 0
KHO1 191847Z 20014G19KT 36/11 A30 RMK A01 T03570107  RH  022%=      5-min Rain = 0
KHO1 191848Z 20015KT 36/10 A30 RMK A01 T03580103  RH  021%=      5-min Rain = 0
KHO1 191849Z 19014G19KT 36/10 A30 RMK A01 T03610104  RH  021%=      5-min Rain = 0
KHO1 191850Z 20014KT 36/10 A30 RMK A01 T03620101  RH  021%=      5-min Rain = 0
KHO1 191851Z 20013KT 36/10 A30 RMK A01 T03610098  RH  020%=      5-min Rain = 0
KHO1 191852Z 19012KT 36/10 A30 RMK A01 T03600100  RH  021%=      5-min Rain = 0
KHO1 191853Z 21011KT 36/10 A30 RMK A01 T03620101  RH  021%=      5-min Rain = 0
KHO1 191854Z 22012KT 36/10 A30 RMK A01 T03600099  RH  020%=      5-min Rain = 0
KHO1 191855Z 22012KT 36/10 A30 RMK A01 T03570098  RH  021%=      5-min Rain = 0
KHO1 191856Z 20009KT 36/10 A30 RMK A01 T03570099  RH  021%=      5-min Rain = 0
KHO1 191857Z 18015KT 36/10 A30 RMK A01 T03590100  RH  021%=      5-min Rain = 0
KHO1 191858Z 18013KT 36/10 A30 RMK A01 T03580100  RH  021%=      5-min Rain = 0
KHO1 191859Z 20012KT 36/10 A30 RMK A01 T03610101  RH  021%=      5-min Rain = 0
KHO1 191900Z 20010KT 36/10 A30 RMK A01 T03600099  RH  021%=      5-min Rain = 0
KHO1 191901Z 20010G15KT 36/10 A30 RMK A01 T03610101  RH  021%=      5-min Rain = 0
KHO1 191902Z 21011KT 36/10 A30 RMK A01 T03620099  RH  020%=      5-min Rain = 0
KHO1 191903Z 22009KT 36/10 A30 RMK A01 T03630096  RH  020%=      5-min Rain = 0
KHO1 191904Z 22005KT 36/10 A2999 RMK A01 T03620096  RH  020%=      5-min Rain = 0
KHO1 191905Z 22010KT 36/10 A2999 RMK A01 T03630096  RH  020%=      5-min Rain = 0
KHO1 191906Z 23011KT 36/10 A2999 RMK A01 T03620095  RH  020%=      5-min Rain = 0
KHO1 191907Z 21010G15KT 36/10 A2999 RMK A01 T03600095  RH  020%=      5-min Rain = 0
KHO1 191908Z 19007KT 36/10 A2999 RMK A01 T03560095  RH  020%=      5-min Rain = 0
KHO1 191909Z 21007G13KT 36/10 A2999 RMK A01 T03580099  RH  021%=      5-min Rain = 0
KHO1 191910Z 21012KT 36/10 A2999 RMK A01 T03620098  RH  020%=      5-min Rain = 0
KHO1 191911Z 21010KT 36/09 A2999 RMK A01 T03590094  RH  020%=      5-min Rain = 0
KHO1 191912Z 22009KT 36/09 A2999 RMK A01 T03580093  RH  020%=      5-min Rain = 0
KHO1 191913Z 22011KT 36/09 A2999 RMK A01 T03560093  RH  020%=      5-min Rain = 0
KHO1 191914Z 23015KT 36/10 A2999 RMK A01 T03570095  RH  020%=      5-min Rain = 0
KHO1 191915Z 21011G16KT 36/10 A2999 RMK A01 T03560095  RH  020%=      5-min Rain = 0
KHO1 191916Z 16010KT 36/10 A2999 RMK A01 T03550095  RH  021%=      5-min Rain = 0
KHO1 191917Z 16013KT 36/10 A2999 RMK A01 T03550095  RH  021%=      5-min Rain = 0
KHO1 191918Z 16013KT 36/09 A2999 RMK A01 T03550094  RH  020%=      5-min Rain = 0
KHO1 191919Z 15013KT 35/09 A2999 RMK A01 T03540090  RH  020%=      5-min Rain = 0
KHO1 191920Z 14017G22KT 35/09 A2999 RMK A01 T03520089  RH  020%=      5-min Rain = 0
KHO1 191921Z 15015KT 35/09 A2999 RMK A01 T03510090  RH  020%=      5-min Rain = 0
KHO1 191922Z 16013KT 35/09 A2999 RMK A01 T03520094  RH  021%=      5-min Rain = 0
KHO1 191923Z 17010G16KT 35/09 A2999 RMK A01 T03540094  RH  021%=      5-min Rain = 0
KHO1 191924Z 19010KT 36/10 A2999 RMK A01 T03600097  RH  020%=      5-min Rain = 0
KHO1 191925Z 20013G18KT 37/09 A2999 RMK A01 T03660094  RH  019%=      5-min Rain = 0
KHO1 191926Z 19014KT 37/09 A2999 RMK A01 T03660089  RH  019%=      5-min Rain = 0
KHO1 191927Z 19009KT 36/08 A2999 RMK A01 T03590084  RH  019%=      5-min Rain = 0
KHO1 191928Z 18009KT 36/09 A2999 RMK A01 T03590085  RH  019%=      5-min Rain = 0
KHO1 191929Z 16004KT 36/08 A2998 RMK A01 T03580084  RH  019%=      5-min Rain = 0
KHO1 191930Z 18010KT 36/09 A2999 RMK A01 T03620090  RH  019%=      5-min Rain = 0
KHO1 191931Z 18012KT 36/09 A2998 RMK A01 T03630089  RH  019%=      5-min Rain = 0
KHO1 191932Z 16010KT 37/09 A2998 RMK A01 T03660091  RH  019%=      5-min Rain = 0
KHO1 191933Z 20013KT 37/09 A2999 RMK A01 T03670091  RH  019%=      5-min Rain = 0
KHO1 191934Z 21012KT 37/09 A2998 RMK A01 T03660089  RH  019%=      5-min Rain = 0
KHO1 191935Z 22013KT 37/09 A2998 RMK A01 T03650087  RH  018%=      5-min Rain = 0
KHO1 191936Z 21011KT 37/08 A2998 RMK A01 T03670082  RH  018%=      5-min Rain = 0
KHO1 191937Z 22009KT 36/08 A2998 RMK A01 T03640084  RH  018%=      5-min Rain = 0
KHO1 191938Z 21011KT 36/09 A2998 RMK A01 T03640086  RH  018%=      5-min Rain = 0
KHO1 191939Z 20011KT 37/09 A2998 RMK A01 T03660088  RH  019%=      5-min Rain = 0
KHO1 191940Z 18014KT 37/09 A2998 RMK A01 T03710093  RH  019%=      5-min Rain = 0
KHO1 191941Z 17013KT 37/09 A2998 RMK A01 T03680086  RH  018%=      5-min Rain = 0
KHO1 191942Z 18009G17KT 36/09 A2998 RMK A01 T03640088  RH  019%=      5-min Rain = 0
KHO1 191943Z 18013KT 37/09 A2998 RMK A01 T03650086  RH  018%=      5-min Rain = 0
KHO1 191944Z 19010KT 37/09 A2998 RMK A01 T03650086  RH  018%=      5-min Rain = 0
KHO1 191945Z 19014KT 37/09 A2998 RMK A01 T03650088  RH  019%=      5-min Rain = 0
KHO1 191946Z 17013KT 37/08 A2998 RMK A01 T03660084  RH  018%=      5-min Rain = 0
KHO1 191947Z 18007G12KT 36/08 A2998 RMK A01 T03630082  RH  018%=      5-min Rain = 0
KHO1 191948Z 19005KT 36/09 A2998 RMK A01 T03610085  RH  018%=      5-min Rain = 0
KHO1 191949Z 16005KT 36/09 A2998 RMK A01 T03630085  RH  018%=      5-min Rain = 0
KHO1 191950Z 18009KT 37/09 A2998 RMK A01 T03650088  RH  018%=      5-min Rain = 0
KHO1 191951Z 17016KT 37/09 A2998 RMK A01 T03670086  RH  018%=      5-min Rain = 0
KHO1 191952Z 16014KT 37/09 A2998 RMK A01 T03670087  RH  018%=      5-min Rain = 0
KHO1 191953Z 15011KT 37/09 A2998 RMK A01 T03710089  RH  018%=      5-min Rain = 0
KHO1 191954Z 17013KT 38/09 A2998 RMK A01 T03750087  RH  017%=      5-min Rain = 0
KHO1 191955Z 18014KT 37/09 A2998 RMK A01 T03720086  RH  018%=      5-min Rain = 0
KHO1 191956Z 19012KT 37/09 A2998 RMK A01 T03710087  RH  018%=      5-min Rain = 0
KHO1 191957Z 21012G18KT 37/09 A2998 RMK A01 T03740086  RH  017%=      5-min Rain = 0
KHO1 191958Z 19016KT 37/08 A2998 RMK A01 T03730082  RH  017%=      5-min Rain = 0
KHO1 191959Z 19012KT 37/08 A2998 RMK A01 T03710082  RH  017%=      5-min Rain = 0
KHO1 192000Z 21013KT 37/08 A2998 RMK A01 T03700084  RH  017%=      5-min Rain = 0
KHO1 192001Z 21013KT 37/08 A2998 RMK A01 T03710084  RH  018%=      5-min Rain = 0
KHO1 192002Z 20012KT 37/08 A2998 RMK A01 T03700082  RH  017%=      5-min Rain = 0
KHO1 192003Z 20009KT 37/08 A2998 RMK A01 T03680081  RH  017%=      5-min Rain = 0
KHO1 192004Z 20007KT 37/08 A2998 RMK A01 T03690082  RH  017%=      5-min Rain = 0
KHO1 192005Z 20007KT 37/08 A2998 RMK A01 T03660079  RH  017%=      5-min Rain = 0
KHO1 192006Z 18008KT 36/08 A2998 RMK A01 T03640080  RH  018%=      5-min Rain = 0
KHO1 192007Z 16010KT 37/08 A2998 RMK A01 T03670084  RH  018%=      5-min Rain = 0
KHO1 192008Z 20009KT 37/08 A2997 RMK A01 T03670079  RH  017%=      5-min Rain = 0
KHO1 192009Z 22004KT 37/08 A2997 RMK A01 T03650078  RH  017%=      5-min Rain = 0
KHO1 192010Z 18004KT 37/08 A2997 RMK A01 T03650079  RH  017%=      5-min Rain = 0
KHO1 192011Z 18014G25KT 37/08 A2997 RMK A01 T03680083  RH  018%=      5-min Rain = 0
KHO1 192012Z 18017KT 37/08 A2997 RMK A01 T03720081  RH  017%=      5-min Rain = 0
KHO1 192013Z 18018KT 38/08 A2997 RMK A01 T03750078  RH  016%=      5-min Rain = 0
KHO1 192014Z 19018KT 37/08 A2997 RMK A01 T03740076  RH  016%=      5-min Rain = 0
KHO1 192015Z 19016G21KT 38/08 A2997 RMK A01 T03750078  RH  016%=      5-min Rain = 0
KHO1 192016Z 18017KT 38/08 A2997 RMK A01 T03770075  RH  016%=      5-min Rain = 0
KHO1 192017Z 18014KT 37/07 A2997 RMK A01 T03720074  RH  016%=      5-min Rain = 0
KHO1 192018Z 18013KT 37/07 A2997 RMK A01 T03710073  RH  016%=      5-min Rain = 0
KHO1 192019Z 17010KT 37/07 A2997 RMK A01 T03680074  RH  017%=      5-min Rain = 0
KHO1 192020Z 20012KT 37/08 A2997 RMK A01 T03730080  RH  017%=      5-min Rain = 0
KHO1 192021Z 20011KT 37/08 A2997 RMK A01 T03700075  RH  017%=      5-min Rain = 0
KHO1 192022Z 21008KT 37/08 A2997 RMK A01 T03670077  RH  017%=      5-min Rain = 0
KHO1 192023Z 20009KT 37/08 A2997 RMK A01 T03690079  RH  017%=      5-min Rain = 0
KHO1 192024Z 20008KT 37/08 A2997 RMK A01 T03690078  RH  017%=      5-min Rain = 0
KHO1 192025Z 18008KT 37/08 A2997 RMK A01 T03710081  RH  017%=      5-min Rain = 0
KHO1 192026Z 19009G14KT 37/08 A2997 RMK A01 T03720081  RH  017%=      5-min Rain = 0
KHO1 192027Z 18015KT 37/08 A2997 RMK A01 T03740079  RH  017%=      5-min Rain = 0
KHO1 192028Z 16014KT 37/08 A2997 RMK A01 T03740077  RH  016%=      5-min Rain = 0
KHO1 192029Z 16015KT 38/08 A2997 RMK A01 T03750080  RH  017%=      5-min Rain = 0
KHO1 192030Z 15016KT 38/08 A2997 RMK A01 T03750079  RH  016%=      5-min Rain = 0
KHO1 192031Z 15014KT 38/08 A2997 RMK A01 T03760080  RH  016%=      5-min Rain = 0
KHO1 192032Z 14008KT 37/08 A2997 RMK A01 T03730077  RH  016%=      5-min Rain = 0
KHO1 192033Z 15007KT 37/08 A2996 RMK A01 T03690075  RH  017%=      5-min Rain = 0
KHO1 192034Z 17010G19KT 37/08 A2997 RMK A01 T03680080  RH  017%=      5-min Rain = 0
KHO1 192035Z 17017KT 37/08 A2997 RMK A01 T03680077  RH  017%=      5-min Rain = 0
KHO1 192036Z 15015G20KT 37/08 A2996 RMK A01 T03680079  RH  017%=      5-min Rain = 0
KHO1 192037Z 17018G23KT 37/08 A2997 RMK A01 T03660076  RH  017%=      5-min Rain = 0
KHO1 192038Z 15016KT 37/08 A2996 RMK A01 T03660079  RH  017%=      5-min Rain = 0
KHO1 192039Z 16015KT 37/08 A2997 RMK A01 T03680076  RH  017%=      5-min Rain = 0
KHO1 192040Z 16014KT 36/08 A2996 RMK A01 T03640076  RH  017%=      5-min Rain = 0
KHO1 192041Z 15017KT 36/08 A2996 RMK A01 T03640075  RH  017%=      5-min Rain = 0
KHO1 192042Z 16016KT 37/08 A2996 RMK A01 T03660078  RH  017%=      5-min Rain = 0
KHO1 192043Z 17014KT 37/08 A2996 RMK A01 T03690077  RH  017%=      5-min Rain = 0
KHO1 192044Z 18012KT 37/08 A2996 RMK A01 T03690077  RH  017%=      5-min Rain = 0
KHO1 192045Z 17013KT 37/08 A2996 RMK A01 T03690077  RH  017%=      5-min Rain = 0
KHO1 192046Z 18016G22KT 37/08 A2996 RMK A01 T03720078  RH  017%=      5-min Rain = 0
KHO1 192047Z 17014KT 37/08 A2996 RMK A01 T03700075  RH  016%=      5-min Rain = 0
KHO1 192048Z 15012KT 37/07 A2996 RMK A01 T03680074  RH  017%=      5-min Rain = 0
KHO1 192049Z 16012KT 37/07 A2996 RMK A01 T03660074  RH  017%=      5-min Rain = 0
KHO1 192050Z 16011KT 37/07 A2996 RMK A01 T03650074  RH  017%=      5-min Rain = 0
KHO1 192051Z 15011KT 36/08 A2996 RMK A01 T03640076  RH  017%=      5-min Rain = 0
KHO1 192052Z 16012KT 37/08 A2996 RMK A01 T03670075  RH  017%=      5-min Rain = 0
KHO1 192053Z 18014KT 37/07 A2996 RMK A01 T03650072  RH  017%=      5-min Rain = 0
KHO1 192054Z 18015KT 36/07 A2996 RMK A01 T03630070  RH  016%=      5-min Rain = 0
KHO1 192055Z 18014KT 36/07 A2996 RMK A01 T03620070  RH  017%=      5-min Rain = 0
KHO1 192056Z 18013KT 36/07 A2996 RMK A01 T03600070  RH  017%=      5-min Rain = 0
KHO1 192057Z 17015KT 36/07 A2996 RMK A01 T03610071  RH  017%=      5-min Rain = 0
KHO1 192058Z 17012KT 36/07 A2996 RMK A01 T03620072  RH  017%=      5-min Rain = 0
KHO1 192059Z 17013G18KT 36/07 A2996 RMK A01 T03640074  RH  017%=      5-min Rain = 0
KHO1 192100Z 19015KT 37/08 A2996 RMK A01 T03690076  RH  017%=      5-min Rain = 0
KHO1 192101Z 17013KT 37/07 A2996 RMK A01 T03710074  RH  016%=      5-min Rain = 0
KHO1 192102Z 17013KT 37/07 A2996 RMK A01 T03700074  RH  016%=      5-min Rain = 0
KHO1 192103Z 17013KT 37/07 A2996 RMK A01 T03700073  RH  016%=      5-min Rain = 0
KHO1 192104Z 17013KT 37/07 A2996 RMK A01 T03700073  RH  016%=      5-min Rain = 0
KHO1 192105Z 18009KT 37/07 A2996 RMK A01 T03680070  RH  016%=      5-min Rain = 0
KHO1 192106Z 17009KT 37/07 A2996 RMK A01 T03680074  RH  017%=      5-min Rain = 0
KHO1 192107Z 20010KT 37/08 A2996 RMK A01 T03710075  RH  016%=      5-min Rain = 0
KHO1 192108Z 22008G13KT 37/07 A2996 RMK A01 T03690073  RH  016%=      5-min Rain = 0
KHO1 192109Z 22011KT 37/08 A2996 RMK A01 T03700075  RH  016%=      5-min Rain = 0
KHO1 192110Z 21008KT 37/07 A2996 RMK A01 T03690073  RH  016%=      5-min Rain = 0
KHO1 192111Z 18008KT 37/08 A2996 RMK A01 T03700075  RH  016%=      5-min Rain = 0
KHO1 192112Z 18010G16KT 37/07 A2996 RMK A01 T03710072  RH  016%=      5-min Rain = 0
KHO1 192113Z 18012G17KT 37/07 A2996 RMK A01 T03710066  RH  015%=      5-min Rain = 0
KHO1 192114Z 17011KT 37/06 A2996 RMK A01 T03700064  RH  015%=      5-min Rain = 0
KHO1 192115Z 17007KT 37/07 A2996 RMK A01 T03670066  RH  016%=      5-min Rain = 0
KHO1 192116Z 17008G15KT 37/07 A2996 RMK A01 T03670067  RH  016%=      5-min Rain = 0
KHO1 192117Z 18016KT 37/07 A2996 RMK A01 T03700070  RH  016%=      5-min Rain = 0
KHO1 192118Z 17014KT 37/07 A2996 RMK A01 T03720071  RH  016%=      5-min Rain = 0
KHO1 192119Z 17013KT 37/07 A2996 RMK A01 T03740068  RH  015%=      5-min Rain = 0
KHO1 192120Z 17016KT 37/07 A2996 RMK A01 T03730067  RH  015%=      5-min Rain = 0
KHO1 192121Z 17017KT 37/07 A2996 RMK A01 T03730068  RH  016%=      5-min Rain = 0
KHO1 192122Z 16015KT 37/07 A2996 RMK A01 T03710068  RH  016%=      5-min Rain = 0
KHO1 192123Z 15013G18KT 37/07 A2996 RMK A01 T03710071  RH  016%=      5-min Rain = 0
KHO1 192124Z 16011KT 37/07 A2996 RMK A01 T03710068  RH  016%=      5-min Rain = 0
KHO1 192125Z 18010KT 37/07 A2996 RMK A01 T03690067  RH  016%=      5-min Rain = 0
KHO1 192126Z 17013KT 37/07 A2996 RMK A01 T03710070  RH  016%=      5-min Rain = 0
KHO1 192127Z 18010KT 37/07 A2996 RMK A01 T03700067  RH  016%=      5-min Rain = 0
KHO1 192128Z 18007KT 37/07 A2996 RMK A01 T03700072  RH  016%=      5-min Rain = 0
KHO1 192129Z 21006KT 37/07 A2996 RMK A01 T03740074  RH  016%=      5-min Rain = 0
KHO1 192130Z 21007KT 38/07 A2996 RMK A01 T03750067  RH  015%=      5-min Rain = 0
KHO1 192131Z 22008KT 38/07 A2996 RMK A01 T03750070  RH  016%=      5-min Rain = 0
KHO1 192132Z 22009KT 38/08 A2996 RMK A01 T03780077  RH  016%=      5-min Rain = 0
KHO1 192133Z 21018KT 38/07 A2996 RMK A01 T03790070  RH  015%=      5-min Rain = 0
KHO1 192134Z 20017KT 38/07 A2996 RMK A01 T03760071  RH  016%=      5-min Rain = 0
KHO1 192135Z 20016KT 38/07 A2996 RMK A01 T03750071  RH  016%=      5-min Rain = 0
KHO1 192136Z 20016KT 37/07 A2996 RMK A01 T03730068  RH  015%=      5-min Rain = 0
KHO1 192137Z 19015KT 37/07 A2996 RMK A01 T03720070  RH  016%=      5-min Rain = 0
KHO1 192138Z 20012G17KT 37/07 A2996 RMK A01 T03720071  RH  016%=      5-min Rain = 0
KHO1 192139Z 19012KT 38/07 A2996 RMK A01 T03770073  RH  016%=      5-min Rain = 0
KHO1 192140Z 20013KT 38/07 A2996 RMK A01 T03770071  RH  015%=      5-min Rain = 0
KHO1 192141Z 21009KT 38/07 A2995 RMK A01 T03760071  RH  016%=      5-min Rain = 0
KHO1 192142Z 22008KT 37/07 A2995 RMK A01 T03730066  RH  015%=      5-min Rain = 0
KHO1 192143Z 21006KT 37/07 A2995 RMK A01 T03720073  RH  016%=      5-min Rain = 0
KHO1 192144Z 20009KT 37/07 A2996 RMK A01 T03740073  RH  016%=      5-min Rain = 0
KHO1 192145Z 19019G24KT 37/07 A2995 RMK A01 T03730070  RH  016%=      5-min Rain = 0
KHO1 192146Z 19020G25KT 37/07 A2995 RMK A01 T03710070  RH  016%=      5-min Rain = 0
KHO1 192147Z 18015KT 38/08 A2995 RMK A01 T03750075  RH  016%=      5-min Rain = 0
KHO1 192148Z 18018G23KT 38/07 A2995 RMK A01 T03770068  RH  015%=      5-min Rain = 0
KHO1 192149Z 17016KT 37/07 A2995 RMK A01 T03720069  RH  016%=      5-min Rain = 0
KHO1 192150Z 18013KT 37/07 A2995 RMK A01 T03710074  RH  016%=      5-min Rain = 0
KHO1 192151Z 18014KT 37/07 A2995 RMK A01 T03700073  RH  016%=      5-min Rain = 0
KHO1 192152Z 17012KT 37/07 A2995 RMK A01 T03670073  RH  017%=      5-min Rain = 0
KHO1 192153Z 16011KT 37/08 A2995 RMK A01 T03670076  RH  017%=      5-min Rain = 0
KHO1 192154Z 16009G14KT 37/08 A2995 RMK A01 T03690077  RH  017%=      5-min Rain = 0
KHO1 192155Z 18009KT 37/08 A2995 RMK A01 T03720076  RH  016%=      5-min Rain = 0
KHO1 192156Z 19008KT 37/07 A2995 RMK A01 T03700074  RH  016%=      5-min Rain = 0
KHO1 192157Z 18007KT 37/08 A2995 RMK A01 T03690076  RH  017%=      5-min Rain = 0
KHO1 192158Z 16014KT 37/08 A2995 RMK A01 T03730075  RH  016%=      5-min Rain = 0
KHO1 192159Z 15012KT 37/07 A2995 RMK A01 T03740073  RH  016%=      5-min Rain = 0
KHO1 192200Z 15011KT 38/07 A2995 RMK A01 T03780074  RH  016%=      5-min Rain = 0
KHO1 192201Z 16013KT 38/07 A2995 RMK A01 T03810070  RH  015%=      5-min Rain = 0
KHO1 192202Z 16014KT 38/07 A2995 RMK A01 T03800070  RH  015%=      5-min Rain = 0
KHO1 192203Z 18014KT 38/07 A2995 RMK A01 T03770067  RH  015%=      5-min Rain = 0
KHO1 192204Z 18015KT 37/07 A2995 RMK A01 T03730065  RH  015%=      5-min Rain = 0
KHO1 192205Z 19010G15KT 37/07 A2995 RMK A01 T03690070  RH  016%=      5-min Rain = 0
KHO1 192206Z 18009G15KT 37/07 A2995 RMK A01 T03710070  RH  016%=      5-min Rain = 0
KHO1 192207Z 16011KT 37/07 A2995 RMK A01 T03710067  RH  016%=      5-min Rain = 0
KHO1 192208Z 19013KT 37/07 A2995 RMK A01 T03740070  RH  016%=      5-min Rain = 0
KHO1 192209Z 21012KT 38/07 A2995 RMK A01 T03770069  RH  015%=      5-min Rain = 0
KHO1 192210Z 20015KT 38/07 A2995 RMK A01 T03760067  RH  015%=      5-min Rain = 0
KHO1 192211Z 21013KT 37/07 A2995 RMK A01 T03740068  RH  015%=      5-min Rain = 0
KHO1 192212Z 19010KT 37/07 A2995 RMK A01 T03730069  RH  016%=      5-min Rain = 0
KHO1 192213Z 20009KT 38/07 A2995 RMK A01 T03750069  RH  015%=      5-min Rain = 0
KHO1 192214Z 20012KT 38/07 A2995 RMK A01 T03760067  RH  015%=      5-min Rain = 0
KHO1 192215Z 20011KT 37/07 A2995 RMK A01 T03740066  RH  015%=      5-min Rain = 0
KHO1 192216Z 20010KT 37/07 A2995 RMK A01 T03730068  RH  015%=      5-min Rain = 0
KHO1 192217Z 21011KT 37/07 A2995 RMK A01 T03730066  RH  015%=      5-min Rain = 0
KHO1 192218Z 22007KT 37/07 A2995 RMK A01 T03700070  RH  016%=      5-min Rain = 0
KHO1 192219Z 19007KT 37/07 A2995 RMK A01 T03730074  RH  016%=      5-min Rain = 0
KHO1 192220Z 14011G20KT 38/08 A2995 RMK A01 T03760081  RH  017%=      5-min Rain = 0
KHO1 192221Z 14016KT 38/08 A2995 RMK A01 T03760080  RH  016%=      5-min Rain = 0
KHO1 192222Z 15011KT 37/08 A2995 RMK A01 T03720081  RH  017%=      5-min Rain = 0
KHO1 192223Z 14012G17KT 37/08 A2994 RMK A01 T03720084  RH  017%=      5-min Rain = 0
KHO1 192224Z 16011KT 38/09 A2994 RMK A01 T03790086  RH  017%=      5-min Rain = 0
KHO1 192225Z 16010KT 38/08 A2994 RMK A01 T03760082  RH  017%=      5-min Rain = 0
KHO1 192226Z 20008G13KT 38/08 A2994 RMK A01 T03750084  RH  017%=      5-min Rain = 0
KHO1 192227Z 20012KT 38/07 A2995 RMK A01 T03780073  RH  016%=      5-min Rain = 0
KHO1 192228Z 19011KT 38/07 A2994 RMK A01 T03790073  RH  015%=      5-min Rain = 0
KHO1 192229Z 18014KT 38/07 A2994 RMK A01 T03780068  RH  015%=      5-min Rain = 0
KHO1 192230Z 19011KT 37/07 A2994 RMK A01 T03720067  RH  015%=      5-min Rain = 0
KHO1 192231Z 19012KT 37/07 A2994 RMK A01 T03720068  RH  016%=      5-min Rain = 0
KHO1 192232Z 19009KT 37/07 A2994 RMK A01 T03710068  RH  016%=      5-min Rain = 0
KHO1 192233Z 21005KT 37/07 A2994 RMK A01 T03740073  RH  016%=      5-min Rain = 0
KHO1 192234Z 24005KT 38/07 A2994 RMK A01 T03760068  RH  015%=      5-min Rain = 0
KHO1 192235Z 21007KT 37/07 A2994 RMK A01 T03730071  RH  016%=      5-min Rain = 0
KHO1 192236Z 18014G22KT 37/07 A2994 RMK A01 T03730073  RH  016%=      5-min Rain = 0
KHO1 192237Z 19017G22KT 37/07 A2994 RMK A01 T03730074  RH  016%=      5-min Rain = 0
KHO1 192238Z 18015KT 37/07 A2994 RMK A01 T03730074  RH  016%=      5-min Rain = 0
KHO1 192239Z 19011KT 37/07 A2994 RMK A01 T03710074  RH  016%=      5-min Rain = 0
KHO1 192240Z 20009KT 37/08 A2994 RMK A01 T03730077  RH  017%=      5-min Rain = 0
KHO1 192241Z 20009KT 37/08 A2994 RMK A01 T03730075  RH  016%=      5-min Rain = 0
KHO1 192242Z 19006KT 37/07 A2994 RMK A01 T03700072  RH  016%=      5-min Rain = 0
KHO1 192243Z 19008KT 37/08 A2994 RMK A01 T03680075  RH  017%=      5-min Rain = 0
KHO1 192244Z 18011KT 37/08 A2994 RMK A01 T03670077  RH  017%=      5-min Rain = 0
KHO1 192245Z 17011KT 37/08 A2994 RMK A01 T03650080  RH  018%=      5-min Rain = 0
KHO1 192246Z 17015KT 36/08 A2994 RMK A01 T03640081  RH  018%=      5-min Rain = 0
KHO1 192247Z 18013KT 36/08 A2994 RMK A01 T03640084  RH  018%=      5-min Rain = 0
KHO1 192248Z 17010KT 37/09 A2994 RMK A01 T03650085  RH  018%=      5-min Rain = 0
KHO1 192249Z 16013KT 37/09 A2994 RMK A01 T03680086  RH  018%=      5-min Rain = 0
KHO1 192250Z 16012KT 37/09 A2994 RMK A01 T03680085  RH  018%=      5-min Rain = 0
KHO1 192251Z 16014KT 37/08 A2994 RMK A01 T03660084  RH  018%=      5-min Rain = 0
KHO1 192252Z 15013KT 36/08 A2993 RMK A01 T03640083  RH  018%=      5-min Rain = 0
KHO1 192253Z 17013KT 36/08 A2993 RMK A01 T03630082  RH  018%=      5-min Rain = 0
KHO1 192254Z 16010KT 36/08 A2993 RMK A01 T03640084  RH  018%=      5-min Rain = 0
KHO1 192255Z 16013KT 37/09 A2993 RMK A01 T03690085  RH  018%=      5-min Rain = 0
KHO1 192256Z 16018KT 37/08 A2993 RMK A01 T03710080  RH  017%=      5-min Rain = 0
KHO1 192257Z 17016KT 37/08 A2993 RMK A01 T03670077  RH  017%=      5-min Rain = 0
KHO1 192258Z 17016KT 37/07 A2994 RMK A01 T03670074  RH  017%=      5-min Rain = 0
KHO1 192259Z 17012KT 37/08 A2993 RMK A01 T03670078  RH  017%=      5-min Rain = 0
KHO1 192300Z 17014KT 37/08 A2993 RMK A01 T03670077  RH  017%=      5-min Rain = 0
KHO1 192301Z 17010KT 37/08 A2993 RMK A01 T03670078  RH  017%=      5-min Rain = 0
KHO1 192302Z 15010KT 37/08 A2993 RMK A01 T03690082  RH  017%=      5-min Rain = 0
KHO1 192303Z 13010KT 37/08 A2993 RMK A01 T03720078  RH  017%=      5-min Rain = 0
KHO1 192304Z 14008KT 37/08 A2993 RMK A01 T03720077  RH  017%=      5-min Rain = 0
KHO1 192305Z 16012G19KT 37/08 A2993 RMK A01 T03720078  RH  017%=      5-min Rain = 0
KHO1 192306Z 17015KT 37/08 A2993 RMK A01 T03720075  RH  016%=      5-min Rain = 0
KHO1 192307Z 17015KT 37/08 A2993 RMK A01 T03700075  RH  017%=      5-min Rain = 0
KHO1 192308Z 18015KT 37/08 A2993 RMK A01 T03720077  RH  017%=      5-min Rain = 0
KHO1 192309Z 18013KT 37/08 A2993 RMK A01 T03710079  RH  017%=      5-min Rain = 0
KHO1 192310Z 18015G22KT 37/08 A2993 RMK A01 T03720081  RH  017%=      5-min Rain = 0
KHO1 192311Z 18018KT 37/08 A2993 RMK A01 T03700082  RH  017%=      5-min Rain = 0
KHO1 192312Z 17016KT 37/08 A2993 RMK A01 T03670081  RH  018%=      5-min Rain = 0
KHO1 192313Z 17015KT 36/08 A2993 RMK A01 T03640083  RH  018%=      5-min Rain = 0
KHO1 192314Z 18013G18KT 36/08 A2993 RMK A01 T03630081  RH  018%=      5-min Rain = 0
KHO1 192315Z 16014KT 36/08 A2993 RMK A01 T03620078  RH  018%=      5-min Rain = 0
KHO1 192316Z 16013KT 36/08 A2993 RMK A01 T03620080  RH  018%=      5-min Rain = 0
KHO1 192317Z 16010KT 37/08 A2993 RMK A01 T03650082  RH  018%=      5-min Rain = 0
KHO1 192318Z 17008KT 37/08 A2993 RMK A01 T03670084  RH  018%=      5-min Rain = 0
KHO1 192319Z 16008KT 37/08 A2993 RMK A01 T03700084  RH  017%=      5-min Rain = 0
KHO1 192320Z 18012KT 37/08 A2993 RMK A01 T03720079  RH  017%=      5-min Rain = 0
KHO1 192321Z 18015KT 37/08 A2993 RMK A01 T03730081  RH  017%=      5-min Rain = 0
KHO1 192322Z 17015KT 37/08 A2993 RMK A01 T03700081  RH  017%=      5-min Rain = 0
KHO1 192323Z 18010KT 37/07 A2993 RMK A01 T03680074  RH  017%=      5-min Rain = 0
KHO1 192324Z 18009KT 37/07 A2993 RMK A01 T03650070  RH  016%=      5-min Rain = 0
KHO1 192325Z 19007KT 36/07 A2993 RMK A01 T03640067  RH  016%=      5-min Rain = 0
KHO1 192326Z 18010KT 36/07 A2993 RMK A01 T03620070  RH  017%=      5-min Rain = 0
KHO1 192327Z 20011KT 36/08 A2993 RMK A01 T03610075  RH  017%=      5-min Rain = 0
KHO1 192328Z 21009KT 36/08 A2993 RMK A01 T03590077  RH  018%=      5-min Rain = 0
KHO1 192329Z 19005KT 36/08 A2993 RMK A01 T03580076  RH  018%=      5-min Rain = 0
KHO1 192330Z 18008KT 36/08 A2993 RMK A01 T03570077  RH  018%=      5-min Rain = 0
KHO1 192331Z 18008KT 36/08 A2993 RMK A01 T03580080  RH  018%=      5-min Rain = 0
KHO1 192332Z 15008KT 36/08 A2993 RMK A01 T03620081  RH  018%=      5-min Rain = 0
KHO1 192333Z 15012KT 37/08 A2993 RMK A01 T03650081  RH  018%=      5-min Rain = 0
KHO1 192334Z 16012KT 37/08 A2993 RMK A01 T03670080  RH  017%=      5-min Rain = 0
KHO1 192335Z 16011KT 37/08 A2993 RMK A01 T03670080  RH  017%=      5-min Rain = 0
KHO1 192336Z 16013KT 37/08 A2993 RMK A01 T03670080  RH  017%=      5-min Rain = 0
KHO1 192337Z 14014KT 37/08 A2993 RMK A01 T03670078  RH  017%=      5-min Rain = 0
KHO1 192338Z 15009KT 37/08 A2993 RMK A01 T03670079  RH  017%=      5-min Rain = 0
KHO1 192339Z 17009KT 37/08 A2993 RMK A01 T03670078  RH  017%=      5-min Rain = 0
KHO1 192340Z 17008KT 37/08 A2993 RMK A01 T03670079  RH  017%=      5-min Rain = 0
KHO1 192341Z 17008KT 37/08 A2993 RMK A01 T03680079  RH  017%=      5-min Rain = 0
KHO1 192342Z 20010KT 37/07 A2993 RMK A01 T03690065  RH  015%=      5-min Rain = 0
KHO1 192343Z 20010KT 37/06 A2993 RMK A01 T03690062  RH  015%=      5-min Rain = 0
KHO1 192344Z 21012KT 37/06 A2993 RMK A01 T03700062  RH  015%=      5-min Rain = 0
KHO1 192345Z 21010KT 37/06 A2993 RMK A01 T03700060  RH  015%=      5-min Rain = 0
KHO1 192346Z 19011KT 37/06 A2993 RMK A01 T03700064  RH  015%=      5-min Rain = 0
KHO1 192347Z 20009KT 37/07 A2993 RMK A01 T03690067  RH  016%=      5-min Rain = 0
KHO1 192348Z 20009KT 37/07 A2993 RMK A01 T03710066  RH  015%=      5-min Rain = 0
KHO1 192349Z 21010KT 37/06 A2993 RMK A01 T03700064  RH  015%=      5-min Rain = 0
KHO1 192350Z 19010KT 37/07 A2993 RMK A01 T03680066  RH  016%=      5-min Rain = 0
KHO1 192351Z 19009KT 37/07 A2993 RMK A01 T03680070  RH  016%=      5-min Rain = 0
KHO1 192352Z 17012KT 37/07 A2993 RMK A01 T03700073  RH  016%=      5-min Rain = 0
KHO1 192353Z 17013KT 37/07 A2993 RMK A01 T03700070  RH  016%=      5-min Rain = 0
KHO1 192354Z 17014KT 37/07 A2993 RMK A01 T03670069  RH  016%=      5-min Rain = 0
KHO1 192355Z 16013KT 37/07 A2993 RMK A01 T03660071  RH  016%=      5-min Rain = 0
KHO1 192356Z 16015KT 37/07 A2992 RMK A01 T03650068  RH  016%=      5-min Rain = 0
KHO1 192357Z 17014KT 36/06 A2993 RMK A01 T03630064  RH  016%=      5-min Rain = 0
KHO1 192358Z 17012KT 36/06 A2993 RMK A01 T03610062  RH  016%=      5-min Rain = 0
KHO1 192359Z 18010KT 36/06 A2993 RMK A01 T03610060  RH  016%=      5-min Rain = 0
KHO1 200000Z 18011KT 36/06 A2993 RMK A01 T03600063  RH  016%=      5-min Rain = 0
KHO1 200001Z 19009KT 36/07 A2993 RMK A01 T03600067  RH  017%=      5-min Rain = 0
KHO1 200002Z 19011KT 36/07 A2993 RMK A01 T03590067  RH  017%=      5-min Rain = 0
KHO1 200003Z 19009KT 36/07 A2993 RMK A01 T03580067  RH  017%=      5-min Rain = 0
KHO1 200004Z 20008KT 36/07 A2993 RMK A01 T03590068  RH  017%=      5-min Rain = 0
KHO1 200005Z 20009KT 36/07 A2993 RMK A01 T03590069  RH  017%=      5-min Rain = 0
KHO1 200006Z 21009KT 36/07 A2993 RMK A01 T03590067  RH  017%=      5-min Rain = 0
KHO1 200007Z 20007KT 36/07 A2993 RMK A01 T03580068  RH  017%=      5-min Rain = 0
KHO1 200008Z 20007KT 36/07 A2993 RMK A01 T03570069  RH  017%=      5-min Rain = 0
KHO1 200009Z 20007KT 36/07 A2993 RMK A01 T03570069  RH  017%=      5-min Rain = 0
KHO1 200010Z 20007KT 36/07 A2993 RMK A01 T03570068  RH  017%=      5-min Rain = 0
KHO1 200011Z 19007KT 36/07 A2993 RMK A01 T03570068  RH  017%=      5-min Rain = 0
KHO1 200012Z 17006KT 36/07 A2993 RMK A01 T03570070  RH  017%=      5-min Rain = 0
KHO1 200013Z 18011KT 36/07 A2993 RMK A01 T03570069  RH  017%=      5-min Rain = 0
KHO1 200014Z 17012KT 36/07 A2993 RMK A01 T03570067  RH  017%=      5-min Rain = 0
KHO1 200015Z 18013KT 36/07 A2993 RMK A01 T03570066  RH  017%=      5-min Rain = 0
KHO1 200016Z 18011KT 36/07 A2993 RMK A01 T03590066  RH  016%=      5-min Rain = 0
KHO1 200017Z 17009KT 36/07 A2993 RMK A01 T03610066  RH  016%=      5-min Rain = 0
KHO1 200018Z 17009KT 36/07 A2993 RMK A01 T03620066  RH  016%=      5-min Rain = 0
KHO1 200019Z 18008KT 36/07 A2993 RMK A01 T03630068  RH  016%=      5-min Rain = 0
KHO1 200020Z 16011KT 36/07 A2993 RMK A01 T03640068  RH  016%=      5-min Rain = 0
KHO1 200021Z 16011KT 36/07 A2993 RMK A01 T03640071  RH  017%=      5-min Rain = 0
KHO1 200022Z 17012KT 37/07 A2992 RMK A01 T03650071  RH  016%=      5-min Rain = 0
KHO1 200023Z 17009KT 37/07 A2993 RMK A01 T03650071  RH  016%=      5-min Rain = 0
KHO1 200024Z 18010G15KT 37/07 A2993 RMK A01 T03650068  RH  016%=      5-min Rain = 0
KHO1 200025Z 17012KT 37/07 A2992 RMK A01 T03650069  RH  016%=      5-min Rain = 0
KHO1 200026Z 18013KT 37/07 A2993 RMK A01 T03650070  RH  016%=      5-min Rain = 0
KHO1 200027Z 17013KT 36/07 A2993 RMK A01 T03640071  RH  017%=      5-min Rain = 0
KHO1 200028Z 18011KT 36/07 A2993 RMK A01 T03640072  RH  017%=      5-min Rain = 0
KHO1 200029Z 18011KT 36/07 A2993 RMK A01 T03640072  RH  017%=      5-min Rain = 0
KHO1 200030Z 17013KT 36/07 A2993 RMK A01 T03640072  RH  017%=      5-min Rain = 0
KHO1 200031Z 18012KT 36/07 A2993 RMK A01 T03640073  RH  017%=      5-min Rain = 0
KHO1 200032Z 18014KT 36/07 A2993 RMK A01 T03640072  RH  017%=      5-min Rain = 0
KHO1 200033Z 17013KT 36/07 A2993 RMK A01 T03620071  RH  017%=      5-min Rain = 0
KHO1 200034Z 17014KT 36/07 A2993 RMK A01 T03620071  RH  017%=      5-min Rain = 0
KHO1 200035Z 16013KT 36/07 A2993 RMK A01 T03610071  RH  017%=      5-min Rain = 0
KHO1 200036Z 16015KT 36/07 A2993 RMK A01 T03610070  RH  017%=      5-min Rain = 0
KHO1 200037Z 17009KT 36/07 A2993 RMK A01 T03610072  RH  017%=      5-min Rain = 0
KHO1 200038Z 17009KT 36/07 A2993 RMK A01 T03620073  RH  017%=      5-min Rain = 0
KHO1 200039Z 17014KT 36/07 A2993 RMK A01 T03620071  RH  017%=      5-min Rain = 0
KHO1 200040Z 17014KT 36/07 A2993 RMK A01 T03610070  RH  017%=      5-min Rain = 0
KHO1 200041Z 17013KT 36/07 A2993 RMK A01 T03600070  RH  017%=      5-min Rain = 0
KHO1 200042Z 16012KT 36/07 A2993 RMK A01 T03600069  RH  017%=      5-min Rain = 0
KHO1 200043Z 17012KT 36/07 A2993 RMK A01 T03600070  RH  017%=      5-min Rain = 0
KHO1 200044Z 16011KT 36/07 A2993 RMK A01 T03590070  RH  017%=      5-min Rain = 0
KHO1 200045Z 15012KT 36/07 A2993 RMK A01 T03580070  RH  017%=      5-min Rain = 0
KHO1 200046Z 16013KT 36/07 A2993 RMK A01 T03580069  RH  017%=      5-min Rain = 0
KHO1 200047Z 16011KT 36/07 A2993 RMK A01 T03580070  RH  017%=      5-min Rain = 0
KHO1 200048Z 17009KT 36/07 A2993 RMK A01 T03580070  RH  017%=      5-min Rain = 0
KHO1 200049Z 16008KT 36/07 A2993 RMK A01 T03580071  RH  017%=      5-min Rain = 0
KHO1 200050Z 16010KT 36/07 A2993 RMK A01 T03590072  RH  017%=      5-min Rain = 0
KHO1 200051Z 16011KT 36/07 A2993 RMK A01 T03580072  RH  017%=      5-min Rain = 0
KHO1 200052Z 16011KT 36/07 A2993 RMK A01 T03580072  RH  017%=      5-min Rain = 0
KHO1 200053Z 15009KT 36/07 A2993 RMK A01 T03580073  RH  017%=      5-min Rain = 0
KHO1 200054Z 15008KT 36/07 A2993 RMK A01 T03580074  RH  017%=      5-min Rain = 0
KHO1 200055Z 15008KT 36/08 A2993 RMK A01 T03580075  RH  018%=      5-min Rain = 0
KHO1 200056Z 15011KT 36/08 A2993 RMK A01 T03580075  RH  018%=      5-min Rain = 0
KHO1 200057Z 16010KT 36/08 A2993 RMK A01 T03580078  RH  018%=      5-min Rain = 0
KHO1 200058Z 16011KT 36/08 A2993 RMK A01 T03580079  RH  018%=      5-min Rain = 0
KHO1 200059Z 17015KT 36/08 A2993 RMK A01 T03570079  RH  018%=      5-min Rain = 0
KHO1 200100Z 17015KT 36/08 A2993 RMK A01 T03560081  RH  019%=      5-min Rain = 0
KHO1 200101Z 17013KT 36/08 A2993 RMK A01 T03560081  RH  019%=      5-min Rain = 0
KHO1 200102Z 17012KT 36/08 A2993 RMK A01 T03560082  RH  019%=      5-min Rain = 0
KHO1 200103Z 17013KT 36/08 A2993 RMK A01 T03550082  RH  019%=      5-min Rain = 0
KHO1 200104Z 17013KT 36/08 A2993 RMK A01 T03550081  RH  019%=      5-min Rain = 0
KHO1 200105Z 16012KT 36/08 A2993 RMK A01 T03550081  RH  019%=      5-min Rain = 0
KHO1 200106Z 16012KT 36/08 A2993 RMK A01 T03550081  RH  019%=      5-min Rain = 0
KHO1 200107Z 17011KT 35/08 A2993 RMK A01 T03540081  RH  019%=      5-min Rain = 0
KHO1 200108Z 17012KT 35/08 A2993 RMK A01 T03540082  RH  019%=      5-min Rain = 0
KHO1 200109Z 17012KT 35/08 A2994 RMK A01 T03540083  RH  019%=      5-min Rain = 0
KHO1 200110Z 17012KT 35/08 A2994 RMK A01 T03530084  RH  019%=      5-min Rain = 0
KHO1 200111Z 17013KT 35/09 A2994 RMK A01 T03530085  RH  019%=      5-min Rain = 0
KHO1 200112Z 17012KT 35/09 A2994 RMK A01 T03520085  RH  020%=      5-min Rain = 0
KHO1 200113Z 17014KT 35/09 A2994 RMK A01 T03510086  RH  020%=      5-min Rain = 0
KHO1 200114Z 17011KT 35/09 A2994 RMK A01 T03510086  RH  020%=      5-min Rain = 0
KHO1 200115Z 17015KT 35/09 A2994 RMK A01 T03500086  RH  020%=      5-min Rain = 0
KHO1 200116Z 16014KT 35/09 A2994 RMK A01 T03500086  RH  020%=      5-min Rain = 0
KHO1 200117Z 16015KT 35/09 A2994 RMK A01 T03500087  RH  020%=      5-min Rain = 0
KHO1 200118Z 16016KT 35/09 A2994 RMK A01 T03490088  RH  020%=      5-min Rain = 0
KHO1 200119Z 16015KT 35/09 A2994 RMK A01 T03480089  RH  020%=      5-min Rain = 0
KHO1 200120Z 16017KT 35/09 A2994 RMK A01 T03480089  RH  021%=      5-min Rain = 0
KHO1 200121Z 16016KT 35/09 A2994 RMK A01 T03480089  RH  021%=      5-min Rain = 0
KHO1 200122Z 16013KT 35/09 A2994 RMK A01 T03470090  RH  021%=      5-min Rain = 0
KHO1 200123Z 15015KT 35/09 A2994 RMK A01 T03470090  RH  021%=      5-min Rain = 0
KHO1 200124Z 16012KT 35/09 A2994 RMK A01 T03470090  RH  021%=      5-min Rain = 0
KHO1 200125Z 16014KT 35/09 A2994 RMK A01 T03460090  RH  021%=      5-min Rain = 0
KHO1 200126Z 16017KT 35/09 A2994 RMK A01 T03460091  RH  021%=      5-min Rain = 0
KHO1 200127Z 15015KT 35/09 A2994 RMK A01 T03460091  RH  021%=      5-min Rain = 0
KHO1 200128Z 15015KT 35/09 A2994 RMK A01 T03450091  RH  021%=      5-min Rain = 0
KHO1 200129Z 15016KT 35/09 A2994 RMK A01 T03450090  RH  021%=      5-min Rain = 0
KHO1 200130Z 15015KT 35/09 A2994 RMK A01 T03450090  RH  021%=      5-min Rain = 0
KHO1 200131Z 15015KT 35/09 A2994 RMK A01 T03450090  RH  021%=      5-min Rain = 0
KHO1 200132Z 15015KT 35/09 A2994 RMK A01 T03450090  RH  021%=      5-min Rain = 0
KHO1 200133Z 15014KT 34/09 A2994 RMK A01 T03440090  RH  021%=      5-min Rain = 0
KHO1 200134Z 15014KT 34/09 A2994 RMK A01 T03440090  RH  021%=      5-min Rain = 0
KHO1 200135Z 15014KT 34/09 A2994 RMK A01 T03440089  RH  021%=      5-min Rain = 0
KHO1 200136Z 16012KT 34/09 A2994 RMK A01 T03440089  RH  021%=      5-min Rain = 0
KHO1 200137Z 16012KT 34/09 A2994 RMK A01 T03440089  RH  021%=      5-min Rain = 0
KHO1 200138Z 16012KT 34/09 A2994 RMK A01 T03430088  RH  021%=      5-min Rain = 0
KHO1 200139Z 16015KT 34/09 A2994 RMK A01 T03430087  RH  021%=      5-min Rain = 0
KHO1 200140Z 17014KT 34/09 A2994 RMK A01 T03430087  RH  021%=      5-min Rain = 0
KHO1 200141Z 17014KT 34/09 A2994 RMK A01 T03430087  RH  021%=      5-min Rain = 0
KHO1 200142Z 17014KT 34/09 A2994 RMK A01 T03430087  RH  021%=      5-min Rain = 0
KHO1 200143Z 16011KT 34/09 A2994 RMK A01 T03420087  RH  021%=      5-min Rain = 0
KHO1 200144Z 17011KT 34/09 A2994 RMK A01 T03420087  RH  021%=      5-min Rain = 0
KHO1 200145Z 16013KT 34/09 A2994 RMK A01 T03410087  RH  021%=      5-min Rain = 0
KHO1 200146Z 16012KT 34/09 A2994 RMK A01 T03410087  RH  021%=      5-min Rain = 0
KHO1 200147Z 16013KT 34/09 A2994 RMK A01 T03400087  RH  021%=      5-min Rain = 0
KHO1 200148Z 17012KT 34/09 A2994 RMK A01 T03400088  RH  021%=      5-min Rain = 0
KHO1 200149Z 15011KT 34/09 A2994 RMK A01 T03400088  RH  021%=      5-min Rain = 0
KHO1 200150Z 16012KT 34/09 A2994 RMK A01 T03390089  RH  022%=      5-min Rain = 0
KHO1 200151Z 16013KT 34/09 A2994 RMK A01 T03390091  RH  022%=      5-min Rain = 0
KHO1 200152Z 15011KT 34/09 A2994 RMK A01 T03390091  RH  022%=      5-min Rain = 0
KHO1 200153Z 15014G20KT 34/09 A2994 RMK A01 T03380093  RH  022%=      5-min Rain = 0
KHO1 200154Z 15017KT 34/10 A2994 RMK A01 T03380096  RH  023%=      5-min Rain = 0
KHO1 200155Z 15017KT 34/10 A2994 RMK A01 T03380097  RH  023%=      5-min Rain = 0
KHO1 200156Z 15015KT 34/10 A2994 RMK A01 T03370097  RH  023%=      5-min Rain = 0
KHO1 200157Z 15012KT 34/10 A2995 RMK A01 T03360097  RH  023%=      5-min Rain = 0
KHO1 200158Z 15013KT 34/10 A2995 RMK A01 T03350097  RH  023%=      5-min Rain = 0
KHO1 200159Z 15016G21KT 33/10 A2995 RMK A01 T03340098  RH  023%=      5-min Rain = 0
KHO1 200200Z 15016G21KT 34/10 A2995 RMK A01 T03350098  RH  023%=      5-min Rain = 0
KHO1 200201Z 15017KT 33/10 A2994 RMK A01 T03340097  RH  023%=      5-min Rain = 0
KHO1 200202Z 15019KT 33/10 A2994 RMK A01 T03340097  RH  023%=      5-min Rain = 0
KHO1 200203Z 15016KT 33/10 A2995 RMK A01 T03340097  RH  023%=      5-min Rain = 0
KHO1 200204Z 15016KT 33/10 A2995 RMK A01 T03340097  RH  023%=      5-min Rain = 0
KHO1 200205Z 15014KT 33/10 A2995 RMK A01 T03330097  RH  024%=      5-min Rain = 0
KHO1 200206Z 15016KT 33/10 A2995 RMK A01 T03330097  RH  024%=      5-min Rain = 0
KHO1 200207Z 15017KT 33/10 A2995 RMK A01 T03330097  RH  024%=      5-min Rain = 0
KHO1 200208Z 15017KT 33/10 A2995 RMK A01 T03330097  RH  024%=      5-min Rain = 0
KHO1 200209Z 14014G19KT 33/10 A2995 RMK A01 T03320097  RH  024%=      5-min Rain = 0
KHO1 200210Z 15015G20KT 33/10 A2995 RMK A01 T03320098  RH  024%=      5-min Rain = 0
KHO1 200211Z 15015KT 33/10 A2995 RMK A01 T03310098  RH  024%=      5-min Rain = 0
KHO1 200212Z 15016G22KT 33/10 A2995 RMK A01 T03310098  RH  024%=      5-min Rain = 0
KHO1 200213Z 15015G20KT 33/10 A2995 RMK A01 T03310098  RH  024%=      5-min Rain = 0
KHO1 200214Z 15020KT 33/10 A2995 RMK A01 T03300099  RH  024%=      5-min Rain = 0
KHO1 200215Z 15016KT 33/10 A2995 RMK A01 T03300099  RH  024%=      5-min Rain = 0
KHO1 200216Z 15016KT 33/10 A2995 RMK A01 T03300099  RH  024%=      5-min Rain = 0
KHO1 200217Z 15016KT 33/10 A2995 RMK A01 T03300099  RH  024%=      5-min Rain = 0
KHO1 200218Z 15016KT 33/10 A2995 RMK A01 T03290099  RH  024%=      5-min Rain = 0
KHO1 200219Z 15020KT 33/10 A2995 RMK A01 T03290099  RH  024%=      5-min Rain = 0
KHO1 200220Z 15017KT 33/10 A2995 RMK A01 T03300099  RH  024%=      5-min Rain = 0
KHO1 200221Z 15015KT 33/10 A2995 RMK A01 T03290100  RH  024%=      5-min Rain = 0
KHO1 200222Z 16014KT 33/10 A2996 RMK A01 T03290100  RH  024%=      5-min Rain = 0
KHO1 200223Z 15015KT 33/10 A2995 RMK A01 T03280100  RH  025%=      5-min Rain = 0
KHO1 200224Z 16015G20KT 33/10 A2996 RMK A01 T03280100  RH  025%=      5-min Rain = 0
KHO1 200225Z 16013KT 33/10 A2996 RMK A01 T03270100  RH  025%=      5-min Rain = 0
KHO1 200226Z 16013KT 33/10 A2996 RMK A01 T03260100  RH  025%=      5-min Rain = 0
KHO1 200227Z 15018G23KT 33/10 A2996 RMK A01 T03260100  RH  025%=      5-min Rain = 0
KHO1 200228Z 16017G22KT 33/10 A2996 RMK A01 T03270101  RH  025%=      5-min Rain = 0
KHO1 200229Z 16019KT 33/10 A2996 RMK A01 T03270101  RH  025%=      5-min Rain = 0
KHO1 200230Z 15017KT 33/10 A2996 RMK A01 T03270101  RH  025%=      5-min Rain = 0
KHO1 200231Z 16017KT 33/10 A2996 RMK A01 T03260101  RH  025%=      5-min Rain = 0
KHO1 200232Z 16017KT 33/10 A2996 RMK A01 T03260101  RH  025%=      5-min Rain = 0
KHO1 200233Z 15013KT 33/10 A2996 RMK A01 T03260102  RH  025%=      5-min Rain = 0
KHO1 200234Z 16013KT 33/10 A2996 RMK A01 T03250102  RH  025%=      5-min Rain = 0
KHO1 200235Z 16015KT 32/10 A2996 RMK A01 T03240102  RH  026%=      5-min Rain = 0
KHO1 200236Z 15016G21KT 32/10 A2996 RMK A01 T03240102  RH  026%=      5-min Rain = 0
KHO1 200237Z 16017KT 32/10 A2996 RMK A01 T03240103  RH  026%=      5-min Rain = 0
KHO1 200238Z 16015KT 32/10 A2996 RMK A01 T03240103  RH  026%=      5-min Rain = 0
KHO1 200239Z 16015G20KT 32/10 A2996 RMK A01 T03240103  RH  026%=      5-min Rain = 0
KHO1 200240Z 16015G20KT 32/10 A2996 RMK A01 T03230103  RH  026%=      5-min Rain = 0
KHO1 200241Z 16015KT 32/10 A2996 RMK A01 T03230103  RH  026%=      5-min Rain = 0
KHO1 200242Z 16013KT 32/10 A2997 RMK A01 T03220103  RH  026%=      5-min Rain = 0
KHO1 200243Z 15013KT 32/10 A2996 RMK A01 T03220103  RH  026%=      5-min Rain = 0
KHO1 200244Z 16012KT 32/10 A2997 RMK A01 T03210104  RH  026%=      5-min Rain = 0
KHO1 200245Z 16016G21KT 32/10 A2997 RMK A01 T03210104  RH  026%=      5-min Rain = 0
KHO1 200246Z 15015KT 32/10 A2997 RMK A01 T03220104  RH  026%=      5-min Rain = 0
KHO1 200247Z 16016KT 32/10 A2997 RMK A01 T03220104  RH  026%=      5-min Rain = 0
KHO1 200248Z 16017G22KT 32/10 A2997 RMK A01 T03220104  RH  026%=      5-min Rain = 0
KHO1 200249Z 16014KT 32/10 A2997 RMK A01 T03210104  RH  026%=      5-min Rain = 0
KHO1 200250Z 16014KT 32/10 A2997 RMK A01 T03200104  RH  026%=      5-min Rain = 0
KHO1 200251Z 16013KT 32/10 A2997 RMK A01 T03200104  RH  027%=      5-min Rain = 0
KHO1 200252Z 16013KT 32/10 A2997 RMK A01 T03190104  RH  027%=      5-min Rain = 0
KHO1 200253Z 17015KT 32/10 A2997 RMK A01 T03190104  RH  027%=      5-min Rain = 0
KHO1 200254Z 16015KT 32/10 A2997 RMK A01 T03190104  RH  027%=      5-min Rain = 0
KHO1 200255Z 16015KT 32/10 A2997 RMK A01 T03190104  RH  027%=      5-min Rain = 0
KHO1 200256Z 16017KT 32/10 A2997 RMK A01 T03190104  RH  027%=      5-min Rain = 0
KHO1 200257Z 16014KT 32/10 A2997 RMK A01 T03190104  RH  027%=      5-min Rain = 0
KHO1 200258Z 16015KT 32/10 A2997 RMK A01 T03180104  RH  027%=      5-min Rain = 0
KHO1 200259Z 17016KT 32/10 A2997 RMK A01 T03180104  RH  027%=      5-min Rain = 0
KHO1 200300Z 16014KT 32/10 A2997 RMK A01 T03180104  RH  027%=      5-min Rain = 0
KHO1 200301Z 16011KT 32/10 A2997 RMK A01 T03180104  RH  027%=      5-min Rain = 0
KHO1 200302Z 16012KT 32/10 A2997 RMK A01 T03160104  RH  027%=      5-min Rain = 0
KHO1 200303Z 16014KT 32/10 A2997 RMK A01 T03160104  RH  027%=      5-min Rain = 0
KHO1 200304Z 16012KT 32/10 A2997 RMK A01 T03160104  RH  027%=      5-min Rain = 0
KHO1 200305Z 16013KT 32/10 A2997 RMK A01 T03160104  RH  027%=      5-min Rain = 0
KHO1 200306Z 16013KT 32/10 A2998 RMK A01 T03160104  RH  027%=      5-min Rain = 0
KHO1 200307Z 16013G18KT 32/10 A2998 RMK A01 T03150104  RH  027%=      5-min Rain = 0
KHO1 200308Z 17016KT 32/10 A2998 RMK A01 T03150104  RH  027%=      5-min Rain = 0
KHO1 200309Z 16014KT 32/10 A2998 RMK A01 T03150104  RH  027%=      5-min Rain = 0
KHO1 200310Z 16014KT 32/10 A2998 RMK A01 T03150104  RH  027%=      5-min Rain = 0
KHO1 200311Z 16015KT 32/10 A2998 RMK A01 T03150104  RH  027%=      5-min Rain = 0
KHO1 200312Z 16017KT 32/10 A2998 RMK A01 T03150104  RH  027%=      5-min Rain = 0
KHO1 200313Z 17017KT 32/10 A2998 RMK A01 T03150104  RH  027%=      5-min Rain = 0
KHO1 200314Z 16015KT 32/10 A2998 RMK A01 T03150104  RH  027%=      5-min Rain = 0
KHO1 200315Z 16012KT 31/10 A2998 RMK A01 T03140104  RH  027%=      5-min Rain = 0
KHO1 200316Z 16011KT 31/10 A2998 RMK A01 T03130104  RH  028%=      5-min Rain = 0
KHO1 200317Z 16015G20KT 31/10 A2998 RMK A01 T03130104  RH  028%=      5-min Rain = 0
KHO1 200318Z 16018KT 31/10 A2998 RMK A01 T03130103  RH  027%=      5-min Rain = 0
KHO1 200319Z 16017KT 31/10 A2998 RMK A01 T03140103  RH  027%=      5-min Rain = 0
KHO1 200320Z 17016KT 31/10 A2998 RMK A01 T03140103  RH  027%=      5-min Rain = 0
KHO1 200321Z 16016KT 31/10 A2998 RMK A01 T03130103  RH  027%=      5-min Rain = 0
KHO1 200322Z 17016KT 31/10 A2998 RMK A01 T03130103  RH  027%=      5-min Rain = 0
KHO1 200323Z 16018G25KT 31/10 A2998 RMK A01 T03130102  RH  027%=      5-min Rain = 0
KHO1 200324Z 17018KT 31/10 A2998 RMK A01 T03130102  RH  027%=      5-min Rain = 0
KHO1 200325Z 17018KT 31/10 A2999 RMK A01 T03130102  RH  027%=      5-min Rain = 0
KHO1 200326Z 17016KT 31/10 A2999 RMK A01 T03120102  RH  027%=      5-min Rain = 0
KHO1 200327Z 16019KT 31/10 A2999 RMK A01 T03120101  RH  027%=      5-min Rain = 0
KHO1 200328Z 17017KT 31/10 A2999 RMK A01 T03120101  RH  027%=      5-min Rain = 0
KHO1 200329Z 17021KT 31/10 A2999 RMK A01 T03120101  RH  027%=      5-min Rain = 0
KHO1 200330Z 16021KT 31/10 A2999 RMK A01 T03120101  RH  027%=      5-min Rain = 0
KHO1 200331Z 17017G22KT 31/10 A2999 RMK A01 T03120101  RH  027%=      5-min Rain = 0
KHO1 200332Z 16015KT 31/10 A2999 RMK A01 T03110101  RH  027%=      5-min Rain = 0
KHO1 200333Z 16015KT 31/10 A2999 RMK A01 T03100101  RH  027%=      5-min Rain = 0
KHO1 200334Z 16014KT 31/10 A2999 RMK A01 T03100101  RH  028%=      5-min Rain = 0
KHO1 200335Z 17014KT 31/10 A2999 RMK A01 T03090101  RH  028%=      5-min Rain = 0
KHO1 200336Z 16015KT 31/10 A2999 RMK A01 T03090101  RH  028%=      5-min Rain = 0
KHO1 200337Z 17014KT 31/10 A2999 RMK A01 T03090101  RH  028%=      5-min Rain = 0
KHO1 200338Z 16015KT 31/10 A2999 RMK A01 T03080101  RH  028%=      5-min Rain = 0
KHO1 200339Z 16015G20KT 31/10 A2999 RMK A01 T03080100  RH  028%=      5-min Rain = 0
KHO1 200340Z 16016KT 31/10 A2999 RMK A01 T03080100  RH  028%=      5-min Rain = 0
KHO1 200341Z 16017KT 31/10 A2999 RMK A01 T03070100  RH  028%=      5-min Rain = 0
KHO1 200342Z 16018KT 31/10 A30 RMK A01 T03080099  RH  028%=      5-min Rain = 0
KHO1 200343Z 16014KT 31/10 A30 RMK A01 T03080100  RH  028%=      5-min Rain = 0
KHO1 200344Z 17016KT 31/10 A30 RMK A01 T03070100  RH  028%=      5-min Rain = 0
KHO1 200345Z 17012KT 31/10 A30 RMK A01 T03070100  RH  028%=      5-min Rain = 0
KHO1 200346Z 16012KT 31/10 A30 RMK A01 T03050100  RH  028%=      5-min Rain = 0
KHO1 200347Z 17013KT 31/10 A30 RMK A01 T03050100  RH  028%=      5-min Rain = 0
KHO1 200348Z 17013KT 30/10 A30 RMK A01 T03040100  RH  028%=      5-min Rain = 0
KHO1 200349Z 17013KT 30/10 A30 RMK A01 T03040100  RH  028%=      5-min Rain = 0
KHO1 200350Z 17012KT 30/10 A30 RMK A01 T03040100  RH  028%=      5-min Rain = 0
KHO1 200351Z 17013G18KT 30/10 A30 RMK A01 T03030099  RH  028%=      5-min Rain = 0
KHO1 200352Z 17014KT 30/10 A30 RMK A01 T03040099  RH  028%=      5-min Rain = 0
KHO1 200353Z 17015KT 30/10 A30 RMK A01 T03040099  RH  028%=      5-min Rain = 0
KHO1 200354Z 17013KT 30/10 A30 RMK A01 T03040099  RH  028%=      5-min Rain = 0
KHO1 200355Z 17014G19KT 30/10 A30 RMK A01 T03030098  RH  028%=      5-min Rain = 0
KHO1 200356Z 16013G19KT 30/10 A30 RMK A01 T03030098  RH  028%=      5-min Rain = 0
KHO1 200357Z 17020G25KT 30/10 A30 RMK A01 T03030096  RH  028%=      5-min Rain = 0
KHO1 200358Z 16016KT 30/10 A30 RMK A01 T03030096  RH  028%=      5-min Rain = 0
KHO1 200359Z 16015KT 30/10 A30 RMK A01 T03030096  RH  028%=      5-min Rain = 0
KHO1 200400Z 17018KT 30/10 A30 RMK A01 T03030095  RH  028%=      5-min Rain = 0
KHO1 200401Z 16016KT 30/10 A30 RMK A01 T03020095  RH  028%=      5-min Rain = 0
KHO1 200402Z 17019KT 30/09 A30 RMK A01 T03020094  RH  027%=      5-min Rain = 0
KHO1 200403Z 17018KT 30/09 A30 RMK A01 T03030094  RH  027%=      5-min Rain = 0
KHO1 200404Z 16017G22KT 30/09 A30 RMK A01 T03020093  RH  027%=      5-min Rain = 0
KHO1 200405Z 16016KT 30/09 A30 RMK A01 T03020093  RH  027%=      5-min Rain = 0
KHO1 200406Z 16016G21KT 30/09 A30 RMK A01 T03010093  RH  027%=      5-min Rain = 0
KHO1 200407Z 17016KT 30/09 A30 RMK A01 T03010092  RH  027%=      5-min Rain = 0
KHO1 200408Z 17017KT 30/09 A30 RMK A01 T03010092  RH  027%=      5-min Rain = 0
KHO1 200409Z 16016KT 30/09 A30 RMK A01 T03010092  RH  027%=      5-min Rain = 0
KHO1 200410Z 17016G21KT 30/09 A30 RMK A01 T03000091  RH  027%=      5-min Rain = 0
KHO1 200411Z 17016KT 30/09 A30 RMK A01 T03000090  RH  027%=      5-min Rain = 0
KHO1 200412Z 16013KT 30/09 A3001 RMK A01 T03000091  RH  027%=      5-min Rain = 0
KHO1 200413Z 17016KT 30/09 A3001 RMK A01 T02990090  RH  027%=      5-min Rain = 0
KHO1 200414Z 17014KT 30/09 A3001 RMK A01 T02990090  RH  027%=      5-min Rain = 0
KHO1 200415Z 16017KT 30/09 A3001 RMK A01 T02980090  RH  027%=      5-min Rain = 0
KHO1 200416Z 17018KT 30/09 A3001 RMK A01 T02990089  RH  027%=      5-min Rain = 0
KHO1 200417Z 17016KT 30/09 A3001 RMK A01 T02990089  RH  027%=      5-min Rain = 0
KHO1 200418Z 17019KT 30/09 A3001 RMK A01 T02990088  RH  027%=      5-min Rain = 0
KHO1 200419Z 17017KT 30/09 A3001 RMK A01 T02980088  RH  027%=      5-min Rain = 0
KHO1 200420Z 17015KT 30/09 A3001 RMK A01 T02980088  RH  027%=      5-min Rain = 0
KHO1 200421Z 17015KT 30/09 A3001 RMK A01 T02980088  RH  027%=      5-min Rain = 0
KHO1 200422Z 16016G23KT 30/09 A3001 RMK A01 T02970087  RH  027%=      5-min Rain = 0
KHO1 200423Z 17017KT 30/09 A3001 RMK A01 T02970087  RH  027%=      5-min Rain = 0
KHO1 200424Z 17015KT 30/09 A3001 RMK A01 T02970087  RH  027%=      5-min Rain = 0
KHO1 200425Z 16016KT 30/09 A3001 RMK A01 T02970086  RH  027%=      5-min Rain = 0
KHO1 200426Z 17017KT 30/09 A3001 RMK A01 T02970086  RH  027%=      5-min Rain = 0
KHO1 200427Z 16015G20KT 30/09 A3001 RMK A01 T02960086  RH  027%=      5-min Rain = 0
KHO1 200428Z 16016KT 30/09 A3001 RMK A01 T02960086  RH  027%=      5-min Rain = 0
KHO1 200429Z 16015KT 30/09 A3001 RMK A01 T02960086  RH  027%=      5-min Rain = 0
KHO1 200430Z 16017KT 30/09 A3001 RMK A01 T02950086  RH  027%=      5-min Rain = 0
KHO1 200431Z 16016G22KT 30/09 A3001 RMK A01 T02950086  RH  027%=      5-min Rain = 0
KHO1 200432Z 16018KT 30/09 A3001 RMK A01 T02950085  RH  027%=      5-min Rain = 0
KHO1 200433Z 16019KT 30/09 A3001 RMK A01 T02950085  RH  027%=      5-min Rain = 0
KHO1 200434Z 16016G21KT 30/09 A3001 RMK A01 T02950085  RH  027%=      5-min Rain = 0
KHO1 200435Z 17019KT 30/09 A3001 RMK A01 T02950085  RH  027%=      5-min Rain = 0
KHO1 200436Z 16017KT 29/09 A3001 RMK A01 T02940085  RH  027%=      5-min Rain = 0
KHO1 200437Z 17016KT 29/08 A3001 RMK A01 T02940084  RH  027%=      5-min Rain = 0
KHO1 200438Z 17017KT 29/08 A3001 RMK A01 T02940084  RH  027%=      5-min Rain = 0
KHO1 200439Z 17016KT 29/08 A3001 RMK A01 T02940084  RH  027%=      5-min Rain = 0
KHO1 200440Z 16018KT 29/08 A3001 RMK A01 T02930083  RH  027%=      5-min Rain = 0
KHO1 200441Z 17020KT 29/08 A3001 RMK A01 T02940083  RH  027%=      5-min Rain = 0
KHO1 200442Z 17017KT 29/08 A3001 RMK A01 T02940083  RH  027%=      5-min Rain = 0
KHO1 200443Z 17017G22KT 29/08 A3001 RMK A01 T02930083  RH  027%=      5-min Rain = 0
KHO1 200444Z 17019KT 29/08 A3001 RMK A01 T02930083  RH  027%=      5-min Rain = 0
KHO1 200445Z 17021G26KT 29/08 A3001 RMK A01 T02930083  RH  027%=      5-min Rain = 0
KHO1 200446Z 17019KT 29/08 A3001 RMK A01 T02930083  RH  027%=      5-min Rain = 0
KHO1 200447Z 17019KT 29/08 A3001 RMK A01 T02930083  RH  027%=      5-min Rain = 0
KHO1 200448Z 17018KT 29/08 A3001 RMK A01 T02930084  RH  027%=      5-min Rain = 0
KHO1 200449Z 17016KT 29/08 A3001 RMK A01 T02920084  RH  027%=      5-min Rain = 0
KHO1 200450Z 17014KT 29/08 A3001 RMK A01 T02910084  RH  027%=      5-min Rain = 0
KHO1 200451Z 17015KT 29/08 A3001 RMK A01 T02910084  RH  027%=      5-min Rain = 0
KHO1 200452Z 17018G24KT 29/08 A3001 RMK A01 T02910084  RH  027%=      5-min Rain = 0
KHO1 200453Z 17018KT 29/08 A3001 RMK A01 T02910084  RH  027%=      5-min Rain = 0
KHO1 200454Z 17017KT 29/08 A3001 RMK A01 T02910084  RH  027%=      5-min Rain = 0
KHO1 200455Z 16017G23KT 29/08 A3001 RMK A01 T02900084  RH  027%=      5-min Rain = 0
KHO1 200456Z 17018KT 29/08 A3001 RMK A01 T02900084  RH  027%=      5-min Rain = 0
KHO1 200457Z 17015KT 29/08 A3001 RMK A01 T02900084  RH  027%=      5-min Rain = 0
KHO1 200458Z 16019KT 29/08 A3001 RMK A01 T02900084  RH  027%=      5-min Rain = 0
KHO1 200459Z 17016G22KT 29/08 A3001 RMK A01 T02900084  RH  027%=      5-min Rain = 0

Page generated in 0.0718 seconds.